<?xml version="1.0" encoding="UTF-8" standalone="no" ?>
<gpx xmlns="http://www.topografix.com/GPX/1/1" xmlns:xsi="http://www.w3.org/2001/XMLSchema-instance" xsi:schemaLocation="http://www.topografix.com/GPX/1/1 http://www.topografix.com/GPX/1/1/gpx.xsd" version="1.1" creator="VisuGPX - https://www.visugpx.com">
  <metadata>
    <name>Mont Margeriaz par le golet de l'agneau</name>
    <desc><![CDATA[Mont Margeriaz en boucle depuis les Désert (la combe), via le Golet de l'agneau.

Montée très raide sous le golet ; il faut mettre un peu les mains au golet, mais pas de grosse difficulté.

Très beau à l'automne quand les arbres se parent de leurs couleurs de feu]]></desc>
  </metadata>
  <trk>
    <name><![CDATA[Margeriaz]]></name>
    <desc><![CDATA[<p>Heure de départ: 10/15/2017 09:05<br/>Heure d'arrivée: 10/15/2017 15:00<br/>Distance: 14,7 km (05:55)<br/>Temps déplacement: 04:02<br/>Vitesse moyenne: 2,48 km/h<br/>Vitesse moyenne mouv.: 3,64 km/h<br/>Vitesse Max.: 8,99 km/h<br/>Altitude minimale: 943 m<br/>Altitude maximale: 1837 m<br/>Vitesse de montée: 330,7 m/h<br/>Vitesse de descente: -402,4 m/h<br/>Gain d'altitude: 1068 m<br/>Perte d'altitude: -1076 m<br/>Temps de montée: 03:13<br/>Temps de descente: 02:40<br/></p><hr align="center" width="480" style="height: 2px; width: 517px"/>]]></desc>
    <trkseg>
      <trkpt lat="45.62164" lon="6.01088">
        <ele>952.5</ele>
        <time>2017-10-15T07:05:00Z</time>
      </trkpt>
      <trkpt lat="45.62165" lon="6.01062">
        <ele>950.33</ele>
        <time>2017-10-15T07:05:19Z</time>
      </trkpt>
      <trkpt lat="45.62182" lon="6.0105">
        <ele>949.48</ele>
        <time>2017-10-15T07:05:49Z</time>
      </trkpt>
      <trkpt lat="45.622" lon="6.01055">
        <ele>949.35</ele>
        <time>2017-10-15T07:06:23Z</time>
      </trkpt>
      <trkpt lat="45.62218" lon="6.01058">
        <ele>950.48</ele>
        <time>2017-10-15T07:06:38Z</time>
      </trkpt>
      <trkpt lat="45.62235" lon="6.01066">
        <ele>951.26</ele>
        <time>2017-10-15T07:06:53Z</time>
      </trkpt>
      <trkpt lat="45.62256" lon="6.01065">
        <ele>953.65</ele>
        <time>2017-10-15T07:07:11Z</time>
      </trkpt>
      <trkpt lat="45.62275" lon="6.0107">
        <ele>955.03</ele>
        <time>2017-10-15T07:07:29Z</time>
      </trkpt>
      <trkpt lat="45.62295" lon="6.01069">
        <ele>955.31</ele>
        <time>2017-10-15T07:07:49Z</time>
      </trkpt>
      <trkpt lat="45.62314" lon="6.01069">
        <ele>957.99</ele>
        <time>2017-10-15T07:08:07Z</time>
      </trkpt>
      <trkpt lat="45.62334" lon="6.0107">
        <ele>959.74</ele>
        <time>2017-10-15T07:08:24Z</time>
      </trkpt>
      <trkpt lat="45.6234" lon="6.01096">
        <ele>962.7</ele>
        <time>2017-10-15T07:08:42Z</time>
      </trkpt>
      <trkpt lat="45.62342" lon="6.01123">
        <ele>963.88</ele>
        <time>2017-10-15T07:09:00Z</time>
      </trkpt>
      <trkpt lat="45.62341" lon="6.01151">
        <ele>964.41</ele>
        <time>2017-10-15T07:09:20Z</time>
      </trkpt>
      <trkpt lat="45.62345" lon="6.01176">
        <ele>964.5</ele>
        <time>2017-10-15T07:09:41Z</time>
      </trkpt>
      <trkpt lat="45.62357" lon="6.01197">
        <ele>962.6</ele>
        <time>2017-10-15T07:10:03Z</time>
      </trkpt>
      <trkpt lat="45.62346" lon="6.01219">
        <ele>962.65</ele>
        <time>2017-10-15T07:10:27Z</time>
      </trkpt>
      <trkpt lat="45.62346" lon="6.01245">
        <ele>963.76</ele>
        <time>2017-10-15T07:11:10Z</time>
      </trkpt>
      <trkpt lat="45.62359" lon="6.01263">
        <ele>964.6</ele>
        <time>2017-10-15T07:11:33Z</time>
      </trkpt>
      <trkpt lat="45.62366" lon="6.01289">
        <ele>966.05</ele>
        <time>2017-10-15T07:12:01Z</time>
      </trkpt>
      <trkpt lat="45.62376" lon="6.01311">
        <ele>969.77</ele>
        <time>2017-10-15T07:12:23Z</time>
      </trkpt>
      <trkpt lat="45.62385" lon="6.01334">
        <ele>973.92</ele>
        <time>2017-10-15T07:12:49Z</time>
      </trkpt>
      <trkpt lat="45.62396" lon="6.01355">
        <ele>976.14</ele>
        <time>2017-10-15T07:13:13Z</time>
      </trkpt>
      <trkpt lat="45.62405" lon="6.01379">
        <ele>980.5</ele>
        <time>2017-10-15T07:13:38Z</time>
      </trkpt>
      <trkpt lat="45.62422" lon="6.01391">
        <ele>985.31</ele>
        <time>2017-10-15T07:14:02Z</time>
      </trkpt>
      <trkpt lat="45.62439" lon="6.01402">
        <ele>990.72</ele>
        <time>2017-10-15T07:14:25Z</time>
      </trkpt>
      <trkpt lat="45.62454" lon="6.01416">
        <ele>997.23</ele>
        <time>2017-10-15T07:15:50Z</time>
      </trkpt>
      <trkpt lat="45.62472" lon="6.0142">
        <ele>1003.59</ele>
        <time>2017-10-15T07:16:12Z</time>
      </trkpt>
      <trkpt lat="45.62489" lon="6.0143">
        <ele>1011.12</ele>
        <time>2017-10-15T07:16:41Z</time>
      </trkpt>
      <trkpt lat="45.62507" lon="6.01436">
        <ele>1015.22</ele>
        <time>2017-10-15T07:17:05Z</time>
      </trkpt>
      <trkpt lat="45.62525" lon="6.01432">
        <ele>1021.8</ele>
        <time>2017-10-15T07:17:33Z</time>
      </trkpt>
      <trkpt lat="45.62542" lon="6.01445">
        <ele>1023.38</ele>
        <time>2017-10-15T07:17:56Z</time>
      </trkpt>
      <trkpt lat="45.62555" lon="6.01463">
        <ele>1026.76</ele>
        <time>2017-10-15T07:18:20Z</time>
      </trkpt>
      <trkpt lat="45.62573" lon="6.01472">
        <ele>1028.12</ele>
        <time>2017-10-15T07:18:48Z</time>
      </trkpt>
      <trkpt lat="45.62588" lon="6.01488">
        <ele>1031.27</ele>
        <time>2017-10-15T07:19:06Z</time>
      </trkpt>
      <trkpt lat="45.62604" lon="6.01502">
        <ele>1033.88</ele>
        <time>2017-10-15T07:19:28Z</time>
      </trkpt>
      <trkpt lat="45.6262" lon="6.01513">
        <ele>1034.33</ele>
        <time>2017-10-15T07:20:13Z</time>
      </trkpt>
      <trkpt lat="45.62633" lon="6.01531">
        <ele>1033.79</ele>
        <time>2017-10-15T07:20:29Z</time>
      </trkpt>
      <trkpt lat="45.62647" lon="6.01549">
        <ele>1033.29</ele>
        <time>2017-10-15T07:20:49Z</time>
      </trkpt>
      <trkpt lat="45.62662" lon="6.01562">
        <ele>1033.68</ele>
        <time>2017-10-15T07:21:11Z</time>
      </trkpt>
      <trkpt lat="45.6268" lon="6.01559">
        <ele>1034.33</ele>
        <time>2017-10-15T07:21:32Z</time>
      </trkpt>
      <trkpt lat="45.62698" lon="6.01555">
        <ele>1035.46</ele>
        <time>2017-10-15T07:21:52Z</time>
      </trkpt>
      <trkpt lat="45.62717" lon="6.01559">
        <ele>1039.8</ele>
        <time>2017-10-15T07:23:15Z</time>
      </trkpt>
      <trkpt lat="45.62735" lon="6.01552">
        <ele>1042.62</ele>
        <time>2017-10-15T07:23:32Z</time>
      </trkpt>
      <trkpt lat="45.62753" lon="6.01549">
        <ele>1047.91</ele>
        <time>2017-10-15T07:23:56Z</time>
      </trkpt>
      <trkpt lat="45.62772" lon="6.0155">
        <ele>1051.54</ele>
        <time>2017-10-15T07:24:23Z</time>
      </trkpt>
      <trkpt lat="45.6279" lon="6.01555">
        <ele>1056.8</ele>
        <time>2017-10-15T07:24:44Z</time>
      </trkpt>
      <trkpt lat="45.62807" lon="6.01563">
        <ele>1060.88</ele>
        <time>2017-10-15T07:25:02Z</time>
      </trkpt>
      <trkpt lat="45.62825" lon="6.0157">
        <ele>1064.43</ele>
        <time>2017-10-15T07:25:24Z</time>
      </trkpt>
      <trkpt lat="45.62833" lon="6.01595">
        <ele>1066.88</ele>
        <time>2017-10-15T07:25:41Z</time>
      </trkpt>
      <trkpt lat="45.62833" lon="6.01623">
        <ele>1068.68</ele>
        <time>2017-10-15T07:26:02Z</time>
      </trkpt>
      <trkpt lat="45.6283" lon="6.01649">
        <ele>1070.24</ele>
        <time>2017-10-15T07:26:19Z</time>
      </trkpt>
      <trkpt lat="45.62817" lon="6.01668">
        <ele>1072.08</ele>
        <time>2017-10-15T07:26:43Z</time>
      </trkpt>
      <trkpt lat="45.62803" lon="6.01684">
        <ele>1074.99</ele>
        <time>2017-10-15T07:27:11Z</time>
      </trkpt>
      <trkpt lat="45.62787" lon="6.01696">
        <ele>1076.92</ele>
        <time>2017-10-15T07:27:38Z</time>
      </trkpt>
      <trkpt lat="45.62794" lon="6.01721">
        <ele>1077.04</ele>
        <time>2017-10-15T07:28:08Z</time>
      </trkpt>
      <trkpt lat="45.62804" lon="6.01742">
        <ele>1076.34</ele>
        <time>2017-10-15T07:28:38Z</time>
      </trkpt>
      <trkpt lat="45.62814" lon="6.01764">
        <ele>1078.05</ele>
        <time>2017-10-15T07:29:11Z</time>
      </trkpt>
      <trkpt lat="45.62824" lon="6.01786">
        <ele>1080.84</ele>
        <time>2017-10-15T07:29:43Z</time>
      </trkpt>
      <trkpt lat="45.62838" lon="6.01805">
        <ele>1083.23</ele>
        <time>2017-10-15T07:30:11Z</time>
      </trkpt>
      <trkpt lat="45.62855" lon="6.01815">
        <ele>1091.79</ele>
        <time>2017-10-15T07:30:39Z</time>
      </trkpt>
      <trkpt lat="45.62861" lon="6.0184">
        <ele>1100.86</ele>
        <time>2017-10-15T07:31:15Z</time>
      </trkpt>
      <trkpt lat="45.62868" lon="6.01864">
        <ele>1107.24</ele>
        <time>2017-10-15T07:31:47Z</time>
      </trkpt>
      <trkpt lat="45.62875" lon="6.01888">
        <ele>1116.45</ele>
        <time>2017-10-15T07:32:21Z</time>
      </trkpt>
      <trkpt lat="45.62884" lon="6.01911">
        <ele>1121.85</ele>
        <time>2017-10-15T07:33:04Z</time>
      </trkpt>
      <trkpt lat="45.62902" lon="6.01916">
        <ele>1128.82</ele>
        <time>2017-10-15T07:33:34Z</time>
      </trkpt>
      <trkpt lat="45.62912" lon="6.01939">
        <ele>1128.6</ele>
        <time>2017-10-15T07:34:07Z</time>
      </trkpt>
      <trkpt lat="45.62924" lon="6.0196">
        <ele>1122.89</ele>
        <time>2017-10-15T07:34:32Z</time>
      </trkpt>
      <trkpt lat="45.62927" lon="6.01986">
        <ele>1121.37</ele>
        <time>2017-10-15T07:34:57Z</time>
      </trkpt>
      <trkpt lat="45.62909" lon="6.01997">
        <ele>1124.17</ele>
        <time>2017-10-15T07:35:38Z</time>
      </trkpt>
      <trkpt lat="45.62891" lon="6.01996">
        <ele>1129.29</ele>
        <time>2017-10-15T07:36:08Z</time>
      </trkpt>
      <trkpt lat="45.62873" lon="6.02">
        <ele>1133.01</ele>
        <time>2017-10-15T07:36:32Z</time>
      </trkpt>
      <trkpt lat="45.62855" lon="6.02007">
        <ele>1138.44</ele>
        <time>2017-10-15T07:37:04Z</time>
      </trkpt>
      <trkpt lat="45.62839" lon="6.02021">
        <ele>1141.09</ele>
        <time>2017-10-15T07:37:28Z</time>
      </trkpt>
      <trkpt lat="45.62826" lon="6.0204">
        <ele>1144.71</ele>
        <time>2017-10-15T07:38:36Z</time>
      </trkpt>
      <trkpt lat="45.62809" lon="6.02053">
        <ele>1147.74</ele>
        <time>2017-10-15T07:39:02Z</time>
      </trkpt>
      <trkpt lat="45.62793" lon="6.02066">
        <ele>1149.11</ele>
        <time>2017-10-15T07:39:25Z</time>
      </trkpt>
      <trkpt lat="45.62776" lon="6.02056">
        <ele>1150.26</ele>
        <time>2017-10-15T07:39:48Z</time>
      </trkpt>
      <trkpt lat="45.6276" lon="6.02045">
        <ele>1151.95</ele>
        <time>2017-10-15T07:40:05Z</time>
      </trkpt>
      <trkpt lat="45.62742" lon="6.02038">
        <ele>1156.42</ele>
        <time>2017-10-15T07:41:22Z</time>
      </trkpt>
      <trkpt lat="45.62759" lon="6.02048">
        <ele>1158.91</ele>
        <time>2017-10-15T07:42:08Z</time>
      </trkpt>
      <trkpt lat="45.62775" lon="6.02033">
        <ele>1158.57</ele>
        <time>2017-10-15T07:42:47Z</time>
      </trkpt>
      <trkpt lat="45.62794" lon="6.02032">
        <ele>1157.29</ele>
        <time>2017-10-15T07:42:54Z</time>
      </trkpt>
      <trkpt lat="45.62813" lon="6.02028">
        <ele>1155.58</ele>
        <time>2017-10-15T07:43:04Z</time>
      </trkpt>
      <trkpt lat="45.62832" lon="6.02026">
        <ele>1153.93</ele>
        <time>2017-10-15T07:43:17Z</time>
      </trkpt>
      <trkpt lat="45.62846" lon="6.02009">
        <ele>1151.14</ele>
        <time>2017-10-15T07:43:48Z</time>
      </trkpt>
      <trkpt lat="45.62859" lon="6.0199">
        <ele>1149.35</ele>
        <time>2017-10-15T07:44:04Z</time>
      </trkpt>
      <trkpt lat="45.62871" lon="6.0201">
        <ele>1147.99</ele>
        <time>2017-10-15T07:44:32Z</time>
      </trkpt>
      <trkpt lat="45.62884" lon="6.02032">
        <ele>1148.36</ele>
        <time>2017-10-15T07:44:52Z</time>
      </trkpt>
      <trkpt lat="45.62902" lon="6.02036">
        <ele>1150.26</ele>
        <time>2017-10-15T07:45:18Z</time>
      </trkpt>
      <trkpt lat="45.62922" lon="6.02034">
        <ele>1152.35</ele>
        <time>2017-10-15T07:45:40Z</time>
      </trkpt>
      <trkpt lat="45.62939" lon="6.02044">
        <ele>1152.59</ele>
        <time>2017-10-15T07:46:05Z</time>
      </trkpt>
      <trkpt lat="45.62951" lon="6.02063">
        <ele>1150.83</ele>
        <time>2017-10-15T07:46:31Z</time>
      </trkpt>
      <trkpt lat="45.62964" lon="6.02082">
        <ele>1151.1</ele>
        <time>2017-10-15T07:46:53Z</time>
      </trkpt>
      <trkpt lat="45.62974" lon="6.02103">
        <ele>1152.72</ele>
        <time>2017-10-15T07:47:13Z</time>
      </trkpt>
      <trkpt lat="45.6297" lon="6.02129">
        <ele>1154.83</ele>
        <time>2017-10-15T07:47:36Z</time>
      </trkpt>
      <trkpt lat="45.62965" lon="6.02154">
        <ele>1158.44</ele>
        <time>2017-10-15T07:47:56Z</time>
      </trkpt>
      <trkpt lat="45.62959" lon="6.0218">
        <ele>1161.28</ele>
        <time>2017-10-15T07:48:26Z</time>
      </trkpt>
      <trkpt lat="45.62959" lon="6.02206">
        <ele>1162.84</ele>
        <time>2017-10-15T07:49:08Z</time>
      </trkpt>
      <trkpt lat="45.62973" lon="6.02225">
        <ele>1167.03</ele>
        <time>2017-10-15T07:49:39Z</time>
      </trkpt>
      <trkpt lat="45.62985" lon="6.02246">
        <ele>1173.93</ele>
        <time>2017-10-15T07:50:26Z</time>
      </trkpt>
      <trkpt lat="45.62994" lon="6.0227">
        <ele>1180.56</ele>
        <time>2017-10-15T07:50:52Z</time>
      </trkpt>
      <trkpt lat="45.63008" lon="6.02287">
        <ele>1188.66</ele>
        <time>2017-10-15T07:51:27Z</time>
      </trkpt>
      <trkpt lat="45.6302" lon="6.02307">
        <ele>1197.41</ele>
        <time>2017-10-15T07:53:08Z</time>
      </trkpt>
      <trkpt lat="45.63026" lon="6.02333">
        <ele>1200.27</ele>
        <time>2017-10-15T07:53:41Z</time>
      </trkpt>
      <trkpt lat="45.6302" lon="6.02358">
        <ele>1201.47</ele>
        <time>2017-10-15T07:54:04Z</time>
      </trkpt>
      <trkpt lat="45.63019" lon="6.02384">
        <ele>1204.22</ele>
        <time>2017-10-15T07:54:25Z</time>
      </trkpt>
      <trkpt lat="45.63017" lon="6.02411">
        <ele>1208.59</ele>
        <time>2017-10-15T07:54:47Z</time>
      </trkpt>
      <trkpt lat="45.63019" lon="6.02438">
        <ele>1212.84</ele>
        <time>2017-10-15T07:55:07Z</time>
      </trkpt>
      <trkpt lat="45.63032" lon="6.02456">
        <ele>1218.15</ele>
        <time>2017-10-15T07:55:36Z</time>
      </trkpt>
      <trkpt lat="45.63048" lon="6.02444">
        <ele>1223.73</ele>
        <time>2017-10-15T07:55:54Z</time>
      </trkpt>
      <trkpt lat="45.63065" lon="6.02434">
        <ele>1227.31</ele>
        <time>2017-10-15T07:56:16Z</time>
      </trkpt>
      <trkpt lat="45.63083" lon="6.02439">
        <ele>1229.2</ele>
        <time>2017-10-15T07:56:35Z</time>
      </trkpt>
      <trkpt lat="45.63099" lon="6.02423">
        <ele>1228.52</ele>
        <time>2017-10-15T07:56:56Z</time>
      </trkpt>
      <trkpt lat="45.63115" lon="6.0241">
        <ele>1227.95</ele>
        <time>2017-10-15T07:57:16Z</time>
      </trkpt>
      <trkpt lat="45.63134" lon="6.02408">
        <ele>1227.62</ele>
        <time>2017-10-15T07:57:29Z</time>
      </trkpt>
      <trkpt lat="45.63152" lon="6.02415">
        <ele>1227.17</ele>
        <time>2017-10-15T07:57:46Z</time>
      </trkpt>
      <trkpt lat="45.63163" lon="6.02437">
        <ele>1226.14</ele>
        <time>2017-10-15T07:58:00Z</time>
      </trkpt>
      <trkpt lat="45.63173" lon="6.02458">
        <ele>1224.21</ele>
        <time>2017-10-15T07:58:17Z</time>
      </trkpt>
      <trkpt lat="45.63189" lon="6.02471">
        <ele>1223.19</ele>
        <time>2017-10-15T07:58:37Z</time>
      </trkpt>
      <trkpt lat="45.63206" lon="6.02481">
        <ele>1225.03</ele>
        <time>2017-10-15T07:58:55Z</time>
      </trkpt>
      <trkpt lat="45.63224" lon="6.02487">
        <ele>1227.17</ele>
        <time>2017-10-15T07:59:17Z</time>
      </trkpt>
      <trkpt lat="45.63234" lon="6.02466">
        <ele>1227.49</ele>
        <time>2017-10-15T07:59:37Z</time>
      </trkpt>
      <trkpt lat="45.63236" lon="6.02439">
        <ele>1227.23</ele>
        <time>2017-10-15T07:59:55Z</time>
      </trkpt>
      <trkpt lat="45.63244" lon="6.02414">
        <ele>1226.81</ele>
        <time>2017-10-15T08:00:12Z</time>
      </trkpt>
      <trkpt lat="45.63256" lon="6.02394">
        <ele>1226.6</ele>
        <time>2017-10-15T08:00:28Z</time>
      </trkpt>
      <trkpt lat="45.63275" lon="6.02388">
        <ele>1228.7</ele>
        <time>2017-10-15T08:00:54Z</time>
      </trkpt>
      <trkpt lat="45.63294" lon="6.02391">
        <ele>1229.64</ele>
        <time>2017-10-15T08:01:06Z</time>
      </trkpt>
      <trkpt lat="45.63312" lon="6.02387">
        <ele>1232.16</ele>
        <time>2017-10-15T08:01:22Z</time>
      </trkpt>
      <trkpt lat="45.63323" lon="6.02365">
        <ele>1233.26</ele>
        <time>2017-10-15T08:01:41Z</time>
      </trkpt>
      <trkpt lat="45.63332" lon="6.02342">
        <ele>1232.32</ele>
        <time>2017-10-15T08:01:59Z</time>
      </trkpt>
      <trkpt lat="45.63346" lon="6.02324">
        <ele>1232.24</ele>
        <time>2017-10-15T08:02:23Z</time>
      </trkpt>
      <trkpt lat="45.63357" lon="6.02303">
        <ele>1231.91</ele>
        <time>2017-10-15T08:02:37Z</time>
      </trkpt>
      <trkpt lat="45.63372" lon="6.02283">
        <ele>1231.93</ele>
        <time>2017-10-15T08:02:59Z</time>
      </trkpt>
      <trkpt lat="45.63386" lon="6.02266">
        <ele>1232.62</ele>
        <time>2017-10-15T08:03:15Z</time>
      </trkpt>
      <trkpt lat="45.63395" lon="6.02243">
        <ele>1232.99</ele>
        <time>2017-10-15T08:03:30Z</time>
      </trkpt>
      <trkpt lat="45.63412" lon="6.0223">
        <ele>1236.14</ele>
        <time>2017-10-15T08:03:50Z</time>
      </trkpt>
      <trkpt lat="45.63428" lon="6.02217">
        <ele>1239.83</ele>
        <time>2017-10-15T08:04:08Z</time>
      </trkpt>
      <trkpt lat="45.63447" lon="6.02221">
        <ele>1242.87</ele>
        <time>2017-10-15T08:04:24Z</time>
      </trkpt>
      <trkpt lat="45.63461" lon="6.02239">
        <ele>1245.61</ele>
        <time>2017-10-15T08:04:36Z</time>
      </trkpt>
      <trkpt lat="45.6348" lon="6.02239">
        <ele>1249.06</ele>
        <time>2017-10-15T08:04:57Z</time>
      </trkpt>
      <trkpt lat="45.63499" lon="6.02244">
        <ele>1252.25</ele>
        <time>2017-10-15T08:05:21Z</time>
      </trkpt>
      <trkpt lat="45.63515" lon="6.02231">
        <ele>1253.76</ele>
        <time>2017-10-15T08:05:40Z</time>
      </trkpt>
      <trkpt lat="45.63522" lon="6.02206">
        <ele>1255.57</ele>
        <time>2017-10-15T08:06:04Z</time>
      </trkpt>
      <trkpt lat="45.63532" lon="6.02182">
        <ele>1255.77</ele>
        <time>2017-10-15T08:06:19Z</time>
      </trkpt>
      <trkpt lat="45.63544" lon="6.02163">
        <ele>1255.13</ele>
        <time>2017-10-15T08:06:36Z</time>
      </trkpt>
      <trkpt lat="45.63562" lon="6.02172">
        <ele>1256.41</ele>
        <time>2017-10-15T08:07:05Z</time>
      </trkpt>
      <trkpt lat="45.63578" lon="6.02158">
        <ele>1256.11</ele>
        <time>2017-10-15T08:07:24Z</time>
      </trkpt>
      <trkpt lat="45.63579" lon="6.02133">
        <ele>1256.49</ele>
        <time>2017-10-15T08:07:39Z</time>
      </trkpt>
      <trkpt lat="45.63588" lon="6.02109">
        <ele>1258.08</ele>
        <time>2017-10-15T08:07:56Z</time>
      </trkpt>
      <trkpt lat="45.63599" lon="6.02087">
        <ele>1258.79</ele>
        <time>2017-10-15T08:08:15Z</time>
      </trkpt>
      <trkpt lat="45.63616" lon="6.02097">
        <ele>1260.47</ele>
        <time>2017-10-15T08:08:39Z</time>
      </trkpt>
      <trkpt lat="45.63634" lon="6.02104">
        <ele>1262.73</ele>
        <time>2017-10-15T08:08:55Z</time>
      </trkpt>
      <trkpt lat="45.63652" lon="6.02112">
        <ele>1264.63</ele>
        <time>2017-10-15T08:09:12Z</time>
      </trkpt>
      <trkpt lat="45.63669" lon="6.02122">
        <ele>1266.11</ele>
        <time>2017-10-15T08:09:29Z</time>
      </trkpt>
      <trkpt lat="45.63687" lon="6.02135">
        <ele>1268.92</ele>
        <time>2017-10-15T08:09:48Z</time>
      </trkpt>
      <trkpt lat="45.63705" lon="6.02141">
        <ele>1270.38</ele>
        <time>2017-10-15T08:10:03Z</time>
      </trkpt>
      <trkpt lat="45.63723" lon="6.02141">
        <ele>1269.73</ele>
        <time>2017-10-15T08:10:21Z</time>
      </trkpt>
      <trkpt lat="45.63741" lon="6.02144">
        <ele>1269.1</ele>
        <time>2017-10-15T08:10:38Z</time>
      </trkpt>
      <trkpt lat="45.63758" lon="6.02154">
        <ele>1269.97</ele>
        <time>2017-10-15T08:11:03Z</time>
      </trkpt>
      <trkpt lat="45.63775" lon="6.02142">
        <ele>1271.15</ele>
        <time>2017-10-15T08:11:17Z</time>
      </trkpt>
      <trkpt lat="45.63792" lon="6.02153">
        <ele>1271.44</ele>
        <time>2017-10-15T08:11:39Z</time>
      </trkpt>
      <trkpt lat="45.63806" lon="6.02172">
        <ele>1271.62</ele>
        <time>2017-10-15T08:11:51Z</time>
      </trkpt>
      <trkpt lat="45.638" lon="6.02197">
        <ele>1273.17</ele>
        <time>2017-10-15T08:12:35Z</time>
      </trkpt>
      <trkpt lat="45.63804" lon="6.02225">
        <ele>1277.2</ele>
        <time>2017-10-15T08:13:09Z</time>
      </trkpt>
      <trkpt lat="45.63818" lon="6.02241">
        <ele>1280.27</ele>
        <time>2017-10-15T08:13:48Z</time>
      </trkpt>
      <trkpt lat="45.63831" lon="6.02259">
        <ele>1284.34</ele>
        <time>2017-10-15T08:14:20Z</time>
      </trkpt>
      <trkpt lat="45.63844" lon="6.02278">
        <ele>1288.47</ele>
        <time>2017-10-15T08:14:42Z</time>
      </trkpt>
      <trkpt lat="45.63853" lon="6.02301">
        <ele>1289.93</ele>
        <time>2017-10-15T08:15:08Z</time>
      </trkpt>
      <trkpt lat="45.63848" lon="6.02325">
        <ele>1297.1</ele>
        <time>2017-10-15T08:16:07Z</time>
      </trkpt>
      <trkpt lat="45.6383" lon="6.02328">
        <ele>1300.15</ele>
        <time>2017-10-15T08:16:42Z</time>
      </trkpt>
      <trkpt lat="45.63811" lon="6.02331">
        <ele>1303.5</ele>
        <time>2017-10-15T08:17:10Z</time>
      </trkpt>
      <trkpt lat="45.63793" lon="6.02335">
        <ele>1306.1</ele>
        <time>2017-10-15T08:17:33Z</time>
      </trkpt>
      <trkpt lat="45.6378" lon="6.02354">
        <ele>1315.62</ele>
        <time>2017-10-15T08:18:26Z</time>
      </trkpt>
      <trkpt lat="45.63773" lon="6.0238">
        <ele>1322.6</ele>
        <time>2017-10-15T08:19:10Z</time>
      </trkpt>
      <trkpt lat="45.63765" lon="6.02403">
        <ele>1329.98</ele>
        <time>2017-10-15T08:20:05Z</time>
      </trkpt>
      <trkpt lat="45.63757" lon="6.02426">
        <ele>1338.58</ele>
        <time>2017-10-15T08:20:51Z</time>
      </trkpt>
      <trkpt lat="45.63746" lon="6.02447">
        <ele>1342.91</ele>
        <time>2017-10-15T08:21:22Z</time>
      </trkpt>
      <trkpt lat="45.63732" lon="6.02465">
        <ele>1349.16</ele>
        <time>2017-10-15T08:21:47Z</time>
      </trkpt>
      <trkpt lat="45.63717" lon="6.02481">
        <ele>1359.85</ele>
        <time>2017-10-15T08:23:36Z</time>
      </trkpt>
      <trkpt lat="45.63707" lon="6.02502">
        <ele>1367</ele>
        <time>2017-10-15T08:23:59Z</time>
      </trkpt>
      <trkpt lat="45.63697" lon="6.02524">
        <ele>1372.06</ele>
        <time>2017-10-15T08:24:19Z</time>
      </trkpt>
      <trkpt lat="45.6369" lon="6.02548">
        <ele>1375.01</ele>
        <time>2017-10-15T08:24:40Z</time>
      </trkpt>
      <trkpt lat="45.63681" lon="6.02572">
        <ele>1377.96</ele>
        <time>2017-10-15T08:25:05Z</time>
      </trkpt>
      <trkpt lat="45.6367" lon="6.02594">
        <ele>1379.04</ele>
        <time>2017-10-15T08:25:27Z</time>
      </trkpt>
      <trkpt lat="45.63661" lon="6.02617">
        <ele>1379.27</ele>
        <time>2017-10-15T08:25:48Z</time>
      </trkpt>
      <trkpt lat="45.63649" lon="6.02638">
        <ele>1380.31</ele>
        <time>2017-10-15T08:26:04Z</time>
      </trkpt>
      <trkpt lat="45.63641" lon="6.02662">
        <ele>1381.19</ele>
        <time>2017-10-15T08:26:23Z</time>
      </trkpt>
      <trkpt lat="45.63635" lon="6.02687">
        <ele>1381.88</ele>
        <time>2017-10-15T08:26:46Z</time>
      </trkpt>
      <trkpt lat="45.63624" lon="6.02707">
        <ele>1385.63</ele>
        <time>2017-10-15T08:27:20Z</time>
      </trkpt>
      <trkpt lat="45.63613" lon="6.02729">
        <ele>1388.73</ele>
        <time>2017-10-15T08:27:57Z</time>
      </trkpt>
      <trkpt lat="45.63615" lon="6.02755">
        <ele>1391.43</ele>
        <time>2017-10-15T08:28:27Z</time>
      </trkpt>
      <trkpt lat="45.63626" lon="6.02776">
        <ele>1398.95</ele>
        <time>2017-10-15T08:29:29Z</time>
      </trkpt>
      <trkpt lat="45.63629" lon="6.02801">
        <ele>1405.73</ele>
        <time>2017-10-15T08:30:01Z</time>
      </trkpt>
      <trkpt lat="45.63611" lon="6.02813">
        <ele>1412.02</ele>
        <time>2017-10-15T08:30:41Z</time>
      </trkpt>
      <trkpt lat="45.63593" lon="6.0282">
        <ele>1422.7</ele>
        <time>2017-10-15T08:31:26Z</time>
      </trkpt>
      <trkpt lat="45.6358" lon="6.02837">
        <ele>1430.01</ele>
        <time>2017-10-15T08:32:22Z</time>
      </trkpt>
      <trkpt lat="45.63574" lon="6.02862">
        <ele>1441.54</ele>
        <time>2017-10-15T08:33:47Z</time>
      </trkpt>
      <trkpt lat="45.63557" lon="6.0287">
        <ele>1449.58</ele>
        <time>2017-10-15T08:34:37Z</time>
      </trkpt>
      <trkpt lat="45.63541" lon="6.02882">
        <ele>1460.87</ele>
        <time>2017-10-15T08:36:39Z</time>
      </trkpt>
      <trkpt lat="45.63559" lon="6.02892">
        <ele>1470.63</ele>
        <time>2017-10-15T08:38:39Z</time>
      </trkpt>
      <trkpt lat="45.6357" lon="6.02913">
        <ele>1471.64</ele>
        <time>2017-10-15T08:39:25Z</time>
      </trkpt>
      <trkpt lat="45.63566" lon="6.02938">
        <ele>1470.78</ele>
        <time>2017-10-15T08:40:06Z</time>
      </trkpt>
      <trkpt lat="45.63558" lon="6.02962">
        <ele>1470.39</ele>
        <time>2017-10-15T08:40:46Z</time>
      </trkpt>
      <trkpt lat="45.6355" lon="6.02987">
        <ele>1479.01</ele>
        <time>2017-10-15T08:41:40Z</time>
      </trkpt>
      <trkpt lat="45.63545" lon="6.03012">
        <ele>1505.13</ele>
        <time>2017-10-15T08:43:09Z</time>
      </trkpt>
      <trkpt lat="45.63539" lon="6.03037">
        <ele>1520.61</ele>
        <time>2017-10-15T08:44:17Z</time>
      </trkpt>
      <trkpt lat="45.63548" lon="6.0306">
        <ele>1534.78</ele>
        <time>2017-10-15T08:46:12Z</time>
      </trkpt>
      <trkpt lat="45.63566" lon="6.03063">
        <ele>1538.82</ele>
        <time>2017-10-15T08:47:12Z</time>
      </trkpt>
      <trkpt lat="45.6358" lon="6.03081">
        <ele>1541.62</ele>
        <time>2017-10-15T08:47:47Z</time>
      </trkpt>
      <trkpt lat="45.63593" lon="6.031">
        <ele>1545.92</ele>
        <time>2017-10-15T08:48:21Z</time>
      </trkpt>
      <trkpt lat="45.63608" lon="6.03117">
        <ele>1552.8</ele>
        <time>2017-10-15T08:49:06Z</time>
      </trkpt>
      <trkpt lat="45.63625" lon="6.03126">
        <ele>1563.29</ele>
        <time>2017-10-15T08:51:26Z</time>
      </trkpt>
      <trkpt lat="45.6363" lon="6.03151">
        <ele>1570.88</ele>
        <time>2017-10-15T08:52:53Z</time>
      </trkpt>
      <trkpt lat="45.63628" lon="6.03177">
        <ele>1581.08</ele>
        <time>2017-10-15T08:54:16Z</time>
      </trkpt>
      <trkpt lat="45.6364" lon="6.03197">
        <ele>1593.27</ele>
        <time>2017-10-15T08:55:33Z</time>
      </trkpt>
      <trkpt lat="45.63645" lon="6.03222">
        <ele>1603.18</ele>
        <time>2017-10-15T08:56:42Z</time>
      </trkpt>
      <trkpt lat="45.63646" lon="6.03248">
        <ele>1612.74</ele>
        <time>2017-10-15T08:58:02Z</time>
      </trkpt>
      <trkpt lat="45.63654" lon="6.03272">
        <ele>1622.04</ele>
        <time>2017-10-15T08:59:21Z</time>
      </trkpt>
      <trkpt lat="45.63666" lon="6.03291">
        <ele>1630.61</ele>
        <time>2017-10-15T09:00:14Z</time>
      </trkpt>
      <trkpt lat="45.63677" lon="6.03312">
        <ele>1646.37</ele>
        <time>2017-10-15T09:03:19Z</time>
      </trkpt>
      <trkpt lat="45.63684" lon="6.03336">
        <ele>1657.66</ele>
        <time>2017-10-15T09:04:38Z</time>
      </trkpt>
      <trkpt lat="45.63694" lon="6.03358">
        <ele>1671.51</ele>
        <time>2017-10-15T09:06:03Z</time>
      </trkpt>
      <trkpt lat="45.63701" lon="6.03382">
        <ele>1680.69</ele>
        <time>2017-10-15T09:07:03Z</time>
      </trkpt>
      <trkpt lat="45.63704" lon="6.03407">
        <ele>1689.43</ele>
        <time>2017-10-15T09:07:50Z</time>
      </trkpt>
      <trkpt lat="45.63719" lon="6.03423">
        <ele>1700.88</ele>
        <time>2017-10-15T09:08:56Z</time>
      </trkpt>
      <trkpt lat="45.63727" lon="6.03446">
        <ele>1708.84</ele>
        <time>2017-10-15T09:10:20Z</time>
      </trkpt>
      <trkpt lat="45.63727" lon="6.03471">
        <ele>1720.46</ele>
        <time>2017-10-15T09:14:09Z</time>
      </trkpt>
      <trkpt lat="45.63734" lon="6.03495">
        <ele>1734.05</ele>
        <time>2017-10-15T09:15:41Z</time>
      </trkpt>
      <trkpt lat="45.63744" lon="6.03517">
        <ele>1741.66</ele>
        <time>2017-10-15T09:16:24Z</time>
      </trkpt>
      <trkpt lat="45.63753" lon="6.0354">
        <ele>1755.25</ele>
        <time>2017-10-15T09:20:19Z</time>
      </trkpt>
      <trkpt lat="45.6374" lon="6.03557">
        <ele>1776.34</ele>
        <time>2017-10-15T09:22:43Z</time>
      </trkpt>
      <trkpt lat="45.63726" lon="6.03574">
        <ele>1793.11</ele>
        <time>2017-10-15T09:28:14Z</time>
      </trkpt>
      <trkpt lat="45.63708" lon="6.03565">
        <ele>1837.02</ele>
        <time>2017-10-15T09:33:34Z</time>
      </trkpt>
      <trkpt lat="45.63696" lon="6.03545">
        <ele>1835.61</ele>
        <time>2017-10-15T09:35:05Z</time>
      </trkpt>
      <trkpt lat="45.63706" lon="6.0352">
        <ele>1831.91</ele>
        <time>2017-10-15T09:35:42Z</time>
      </trkpt>
      <trkpt lat="45.63703" lon="6.03547">
        <ele>1815.67</ele>
        <time>2017-10-15T09:35:53Z</time>
      </trkpt>
      <trkpt lat="45.63719" lon="6.0353">
        <ele>1773.5</ele>
        <time>2017-10-15T09:36:38Z</time>
      </trkpt>
      <trkpt lat="45.6371" lon="6.03554">
        <ele>1771.61</ele>
        <time>2017-10-15T09:36:48Z</time>
      </trkpt>
      <trkpt lat="45.63721" lon="6.03533">
        <ele>1818.42</ele>
        <time>2017-10-15T09:39:52Z</time>
      </trkpt>
      <trkpt lat="45.63704" lon="6.03542">
        <ele>1837.34</ele>
        <time>2017-10-15T09:44:07Z</time>
      </trkpt>
      <trkpt lat="45.63704" lon="6.03568">
        <ele>1829.49</ele>
        <time>2017-10-15T09:44:59Z</time>
      </trkpt>
      <trkpt lat="45.6369" lon="6.03586">
        <ele>1828.34</ele>
        <time>2017-10-15T09:45:52Z</time>
      </trkpt>
      <trkpt lat="45.63674" lon="6.03571">
        <ele>1823.72</ele>
        <time>2017-10-15T09:47:20Z</time>
      </trkpt>
      <trkpt lat="45.63659" lon="6.03556">
        <ele>1822.19</ele>
        <time>2017-10-15T09:47:35Z</time>
      </trkpt>
      <trkpt lat="45.63642" lon="6.03543">
        <ele>1821.2</ele>
        <time>2017-10-15T09:47:55Z</time>
      </trkpt>
      <trkpt lat="45.63626" lon="6.03529">
        <ele>1821.34</ele>
        <time>2017-10-15T09:48:08Z</time>
      </trkpt>
      <trkpt lat="45.63613" lon="6.03509">
        <ele>1823.1</ele>
        <time>2017-10-15T09:48:33Z</time>
      </trkpt>
      <trkpt lat="45.63598" lon="6.03493">
        <ele>1824.06</ele>
        <time>2017-10-15T09:48:57Z</time>
      </trkpt>
      <trkpt lat="45.63582" lon="6.03482">
        <ele>1827.35</ele>
        <time>2017-10-15T09:49:50Z</time>
      </trkpt>
      <trkpt lat="45.63567" lon="6.03468">
        <ele>1827.22</ele>
        <time>2017-10-15T09:50:10Z</time>
      </trkpt>
      <trkpt lat="45.63551" lon="6.03452">
        <ele>1828.65</ele>
        <time>2017-10-15T09:50:29Z</time>
      </trkpt>
      <trkpt lat="45.63535" lon="6.03441">
        <ele>1828.21</ele>
        <time>2017-10-15T09:50:47Z</time>
      </trkpt>
      <trkpt lat="45.63515" lon="6.03435">
        <ele>1829.7</ele>
        <time>2017-10-15T09:51:13Z</time>
      </trkpt>
      <trkpt lat="45.63497" lon="6.03428">
        <ele>1830.56</ele>
        <time>2017-10-15T09:51:38Z</time>
      </trkpt>
      <trkpt lat="45.6348" lon="6.03415">
        <ele>1831.77</ele>
        <time>2017-10-15T09:51:52Z</time>
      </trkpt>
      <trkpt lat="45.63463" lon="6.03404">
        <ele>1831.21</ele>
        <time>2017-10-15T09:52:13Z</time>
      </trkpt>
      <trkpt lat="45.63447" lon="6.03387">
        <ele>1830.9</ele>
        <time>2017-10-15T09:52:29Z</time>
      </trkpt>
      <trkpt lat="45.63431" lon="6.03375">
        <ele>1830.19</ele>
        <time>2017-10-15T09:52:43Z</time>
      </trkpt>
      <trkpt lat="45.63415" lon="6.03363">
        <ele>1829.84</ele>
        <time>2017-10-15T09:53:11Z</time>
      </trkpt>
      <trkpt lat="45.63396" lon="6.03365">
        <ele>1830.92</ele>
        <time>2017-10-15T09:53:35Z</time>
      </trkpt>
      <trkpt lat="45.63379" lon="6.03376">
        <ele>1831.78</ele>
        <time>2017-10-15T09:54:20Z</time>
      </trkpt>
      <trkpt lat="45.63367" lon="6.03395">
        <ele>1828.24</ele>
        <time>2017-10-15T09:54:43Z</time>
      </trkpt>
      <trkpt lat="45.63348" lon="6.03399">
        <ele>1826.37</ele>
        <time>2017-10-15T09:55:01Z</time>
      </trkpt>
      <trkpt lat="45.63331" lon="6.0341">
        <ele>1824.04</ele>
        <time>2017-10-15T09:55:24Z</time>
      </trkpt>
      <trkpt lat="45.63312" lon="6.03416">
        <ele>1819.67</ele>
        <time>2017-10-15T09:55:50Z</time>
      </trkpt>
      <trkpt lat="45.63295" lon="6.03411">
        <ele>1815.38</ele>
        <time>2017-10-15T09:56:08Z</time>
      </trkpt>
      <trkpt lat="45.63277" lon="6.03402">
        <ele>1808.63</ele>
        <time>2017-10-15T09:57:53Z</time>
      </trkpt>
      <trkpt lat="45.63259" lon="6.03401">
        <ele>1806.24</ele>
        <time>2017-10-15T09:58:07Z</time>
      </trkpt>
      <trkpt lat="45.63241" lon="6.03397">
        <ele>1802.3</ele>
        <time>2017-10-15T09:58:29Z</time>
      </trkpt>
      <trkpt lat="45.63223" lon="6.03388">
        <ele>1800.6</ele>
        <time>2017-10-15T09:58:43Z</time>
      </trkpt>
      <trkpt lat="45.63205" lon="6.03382">
        <ele>1800.26</ele>
        <time>2017-10-15T09:59:00Z</time>
      </trkpt>
      <trkpt lat="45.63187" lon="6.03376">
        <ele>1798.75</ele>
        <time>2017-10-15T09:59:17Z</time>
      </trkpt>
      <trkpt lat="45.63168" lon="6.03373">
        <ele>1798</ele>
        <time>2017-10-15T09:59:34Z</time>
      </trkpt>
      <trkpt lat="45.63148" lon="6.03371">
        <ele>1797.88</ele>
        <time>2017-10-15T09:59:49Z</time>
      </trkpt>
      <trkpt lat="45.63129" lon="6.0338">
        <ele>1797.01</ele>
        <time>2017-10-15T10:00:08Z</time>
      </trkpt>
      <trkpt lat="45.6311" lon="6.03386">
        <ele>1796.06</ele>
        <time>2017-10-15T10:00:26Z</time>
      </trkpt>
      <trkpt lat="45.63092" lon="6.03395">
        <ele>1796.69</ele>
        <time>2017-10-15T10:00:41Z</time>
      </trkpt>
      <trkpt lat="45.63076" lon="6.03406">
        <ele>1798.87</ele>
        <time>2017-10-15T10:00:58Z</time>
      </trkpt>
      <trkpt lat="45.63055" lon="6.03409">
        <ele>1801.47</ele>
        <time>2017-10-15T10:01:17Z</time>
      </trkpt>
      <trkpt lat="45.63038" lon="6.03421">
        <ele>1803.09</ele>
        <time>2017-10-15T10:01:46Z</time>
      </trkpt>
      <trkpt lat="45.63025" lon="6.03439">
        <ele>1803.53</ele>
        <time>2017-10-15T10:02:05Z</time>
      </trkpt>
      <trkpt lat="45.63019" lon="6.03465">
        <ele>1801.44</ele>
        <time>2017-10-15T10:03:00Z</time>
      </trkpt>
      <trkpt lat="45.63027" lon="6.03488">
        <ele>1799.2</ele>
        <time>2017-10-15T10:03:18Z</time>
      </trkpt>
      <trkpt lat="45.63033" lon="6.03513">
        <ele>1795.6</ele>
        <time>2017-10-15T10:03:32Z</time>
      </trkpt>
      <trkpt lat="45.6304" lon="6.03537">
        <ele>1792</ele>
        <time>2017-10-15T10:03:48Z</time>
      </trkpt>
      <trkpt lat="45.63047" lon="6.03561">
        <ele>1790.28</ele>
        <time>2017-10-15T10:04:02Z</time>
      </trkpt>
      <trkpt lat="45.63047" lon="6.03588">
        <ele>1788.77</ele>
        <time>2017-10-15T10:04:17Z</time>
      </trkpt>
      <trkpt lat="45.63039" lon="6.03612">
        <ele>1785.44</ele>
        <time>2017-10-15T10:04:35Z</time>
      </trkpt>
      <trkpt lat="45.63031" lon="6.03635">
        <ele>1784.16</ele>
        <time>2017-10-15T10:04:50Z</time>
      </trkpt>
      <trkpt lat="45.63023" lon="6.03658">
        <ele>1781.61</ele>
        <time>2017-10-15T10:05:22Z</time>
      </trkpt>
      <trkpt lat="45.63012" lon="6.0368">
        <ele>1780.1</ele>
        <time>2017-10-15T10:05:36Z</time>
      </trkpt>
      <trkpt lat="45.63009" lon="6.03705">
        <ele>1778.79</ele>
        <time>2017-10-15T10:05:52Z</time>
      </trkpt>
      <trkpt lat="45.63017" lon="6.03733">
        <ele>1777.12</ele>
        <time>2017-10-15T10:06:10Z</time>
      </trkpt>
      <trkpt lat="45.63031" lon="6.03752">
        <ele>1773.09</ele>
        <time>2017-10-15T10:06:30Z</time>
      </trkpt>
      <trkpt lat="45.63043" lon="6.03774">
        <ele>1768.68</ele>
        <time>2017-10-15T10:06:47Z</time>
      </trkpt>
      <trkpt lat="45.63057" lon="6.03791">
        <ele>1764.76</ele>
        <time>2017-10-15T10:07:03Z</time>
      </trkpt>
      <trkpt lat="45.63068" lon="6.03812">
        <ele>1762.78</ele>
        <time>2017-10-15T10:07:15Z</time>
      </trkpt>
      <trkpt lat="45.63071" lon="6.03838">
        <ele>1762.31</ele>
        <time>2017-10-15T10:07:27Z</time>
      </trkpt>
      <trkpt lat="45.63065" lon="6.03863">
        <ele>1760.34</ele>
        <time>2017-10-15T10:07:43Z</time>
      </trkpt>
      <trkpt lat="45.63059" lon="6.03888">
        <ele>1756.52</ele>
        <time>2017-10-15T10:07:59Z</time>
      </trkpt>
      <trkpt lat="45.63057" lon="6.03915">
        <ele>1752.19</ele>
        <time>2017-10-15T10:08:14Z</time>
      </trkpt>
      <trkpt lat="45.63056" lon="6.03941">
        <ele>1748.48</ele>
        <time>2017-10-15T10:08:31Z</time>
      </trkpt>
      <trkpt lat="45.6305" lon="6.03967">
        <ele>1745.82</ele>
        <time>2017-10-15T10:08:46Z</time>
      </trkpt>
      <trkpt lat="45.63047" lon="6.03994">
        <ele>1741.97</ele>
        <time>2017-10-15T10:09:03Z</time>
      </trkpt>
      <trkpt lat="45.63044" lon="6.04021">
        <ele>1739.22</ele>
        <time>2017-10-15T10:09:18Z</time>
      </trkpt>
      <trkpt lat="45.63038" lon="6.04047">
        <ele>1738.72</ele>
        <time>2017-10-15T10:09:39Z</time>
      </trkpt>
      <trkpt lat="45.63023" lon="6.04063">
        <ele>1739.14</ele>
        <time>2017-10-15T10:09:56Z</time>
      </trkpt>
      <trkpt lat="45.63015" lon="6.04087">
        <ele>1739.18</ele>
        <time>2017-10-15T10:10:10Z</time>
      </trkpt>
      <trkpt lat="45.63002" lon="6.04105">
        <ele>1739.79</ele>
        <time>2017-10-15T10:10:27Z</time>
      </trkpt>
      <trkpt lat="45.62986" lon="6.04118">
        <ele>1741.9</ele>
        <time>2017-10-15T10:10:42Z</time>
      </trkpt>
      <trkpt lat="45.6297" lon="6.04128">
        <ele>1743.67</ele>
        <time>2017-10-15T10:10:54Z</time>
      </trkpt>
      <trkpt lat="45.62971" lon="6.04156">
        <ele>1744.73</ele>
        <time>2017-10-15T10:11:40Z</time>
      </trkpt>
      <trkpt lat="45.62961" lon="6.04177">
        <ele>1745.7</ele>
        <time>2017-10-15T10:12:05Z</time>
      </trkpt>
      <trkpt lat="45.62958" lon="6.04203">
        <ele>1740.75</ele>
        <time>2017-10-15T10:12:41Z</time>
      </trkpt>
      <trkpt lat="45.62968" lon="6.04225">
        <ele>1728.92</ele>
        <time>2017-10-15T10:13:04Z</time>
      </trkpt>
      <trkpt lat="45.62973" lon="6.0425">
        <ele>1720.34</ele>
        <time>2017-10-15T10:13:20Z</time>
      </trkpt>
      <trkpt lat="45.62977" lon="6.04275">
        <ele>1715.36</ele>
        <time>2017-10-15T10:13:33Z</time>
      </trkpt>
      <trkpt lat="45.62972" lon="6.04302">
        <ele>1713</ele>
        <time>2017-10-15T10:13:53Z</time>
      </trkpt>
      <trkpt lat="45.62968" lon="6.04329">
        <ele>1711.69</ele>
        <time>2017-10-15T10:14:12Z</time>
      </trkpt>
      <trkpt lat="45.62958" lon="6.04352">
        <ele>1709.79</ele>
        <time>2017-10-15T10:14:27Z</time>
      </trkpt>
      <trkpt lat="45.62949" lon="6.04376">
        <ele>1706.5</ele>
        <time>2017-10-15T10:14:47Z</time>
      </trkpt>
      <trkpt lat="45.62937" lon="6.04396">
        <ele>1705.43</ele>
        <time>2017-10-15T10:15:06Z</time>
      </trkpt>
      <trkpt lat="45.62923" lon="6.04412">
        <ele>1706.19</ele>
        <time>2017-10-15T10:15:22Z</time>
      </trkpt>
      <trkpt lat="45.62908" lon="6.04429">
        <ele>1706.86</ele>
        <time>2017-10-15T10:15:37Z</time>
      </trkpt>
      <trkpt lat="45.62897" lon="6.04451">
        <ele>1706.8</ele>
        <time>2017-10-15T10:15:59Z</time>
      </trkpt>
      <trkpt lat="45.6289" lon="6.04475">
        <ele>1703</ele>
        <time>2017-10-15T10:16:26Z</time>
      </trkpt>
      <trkpt lat="45.6288" lon="6.04497">
        <ele>1699.81</ele>
        <time>2017-10-15T10:16:47Z</time>
      </trkpt>
      <trkpt lat="45.62868" lon="6.04518">
        <ele>1698.07</ele>
        <time>2017-10-15T10:17:26Z</time>
      </trkpt>
      <trkpt lat="45.62858" lon="6.04541">
        <ele>1695.38</ele>
        <time>2017-10-15T10:17:51Z</time>
      </trkpt>
      <trkpt lat="45.62841" lon="6.04552">
        <ele>1695.61</ele>
        <time>2017-10-15T10:18:07Z</time>
      </trkpt>
      <trkpt lat="45.6283" lon="6.04573">
        <ele>1694.9</ele>
        <time>2017-10-15T10:18:24Z</time>
      </trkpt>
      <trkpt lat="45.62819" lon="6.04595">
        <ele>1693.22</ele>
        <time>2017-10-15T10:18:46Z</time>
      </trkpt>
      <trkpt lat="45.62804" lon="6.0461">
        <ele>1689.85</ele>
        <time>2017-10-15T10:19:22Z</time>
      </trkpt>
      <trkpt lat="45.62792" lon="6.0463">
        <ele>1686.31</ele>
        <time>2017-10-15T10:19:38Z</time>
      </trkpt>
      <trkpt lat="45.62776" lon="6.04645">
        <ele>1683.9</ele>
        <time>2017-10-15T10:20:06Z</time>
      </trkpt>
      <trkpt lat="45.62766" lon="6.04665">
        <ele>1680.32</ele>
        <time>2017-10-15T10:20:22Z</time>
      </trkpt>
      <trkpt lat="45.62751" lon="6.04681">
        <ele>1676.16</ele>
        <time>2017-10-15T10:20:39Z</time>
      </trkpt>
      <trkpt lat="45.62737" lon="6.04699">
        <ele>1671.67</ele>
        <time>2017-10-15T10:20:56Z</time>
      </trkpt>
      <trkpt lat="45.62724" lon="6.0472">
        <ele>1667.4</ele>
        <time>2017-10-15T10:21:14Z</time>
      </trkpt>
      <trkpt lat="45.62712" lon="6.04742">
        <ele>1663.14</ele>
        <time>2017-10-15T10:21:30Z</time>
      </trkpt>
      <trkpt lat="45.62698" lon="6.0476">
        <ele>1659.98</ele>
        <time>2017-10-15T10:21:45Z</time>
      </trkpt>
      <trkpt lat="45.62681" lon="6.04763">
        <ele>1657.71</ele>
        <time>2017-10-15T10:22:07Z</time>
      </trkpt>
      <trkpt lat="45.62663" lon="6.04776">
        <ele>1655.93</ele>
        <time>2017-10-15T10:22:26Z</time>
      </trkpt>
      <trkpt lat="45.62646" lon="6.04785">
        <ele>1652.89</ele>
        <time>2017-10-15T10:22:43Z</time>
      </trkpt>
      <trkpt lat="45.62629" lon="6.04794">
        <ele>1649.56</ele>
        <time>2017-10-15T10:22:57Z</time>
      </trkpt>
      <trkpt lat="45.62614" lon="6.04811">
        <ele>1647.14</ele>
        <time>2017-10-15T10:23:12Z</time>
      </trkpt>
      <trkpt lat="45.62598" lon="6.04823">
        <ele>1644.3</ele>
        <time>2017-10-15T10:23:28Z</time>
      </trkpt>
      <trkpt lat="45.62585" lon="6.04842">
        <ele>1642.11</ele>
        <time>2017-10-15T10:23:44Z</time>
      </trkpt>
      <trkpt lat="45.62571" lon="6.04858">
        <ele>1640.99</ele>
        <time>2017-10-15T10:23:56Z</time>
      </trkpt>
      <trkpt lat="45.62561" lon="6.0488">
        <ele>1639.43</ele>
        <time>2017-10-15T10:24:11Z</time>
      </trkpt>
      <trkpt lat="45.62547" lon="6.04899">
        <ele>1638.01</ele>
        <time>2017-10-15T10:24:26Z</time>
      </trkpt>
      <trkpt lat="45.62536" lon="6.0492">
        <ele>1635.91</ele>
        <time>2017-10-15T10:24:41Z</time>
      </trkpt>
      <trkpt lat="45.62523" lon="6.04939">
        <ele>1634.49</ele>
        <time>2017-10-15T10:24:54Z</time>
      </trkpt>
      <trkpt lat="45.62509" lon="6.04959">
        <ele>1634.03</ele>
        <time>2017-10-15T10:25:10Z</time>
      </trkpt>
      <trkpt lat="45.62497" lon="6.04977">
        <ele>1634.11</ele>
        <time>2017-10-15T10:25:24Z</time>
      </trkpt>
      <trkpt lat="45.62486" lon="6.04999">
        <ele>1630.79</ele>
        <time>2017-10-15T10:25:40Z</time>
      </trkpt>
      <trkpt lat="45.62472" lon="6.05017">
        <ele>1626.06</ele>
        <time>2017-10-15T10:25:55Z</time>
      </trkpt>
      <trkpt lat="45.62458" lon="6.05033">
        <ele>1622.4</ele>
        <time>2017-10-15T10:26:10Z</time>
      </trkpt>
      <trkpt lat="45.62447" lon="6.05054">
        <ele>1622.24</ele>
        <time>2017-10-15T10:26:26Z</time>
      </trkpt>
      <trkpt lat="45.62433" lon="6.05071">
        <ele>1623.43</ele>
        <time>2017-10-15T10:26:45Z</time>
      </trkpt>
      <trkpt lat="45.62426" lon="6.05096">
        <ele>1615.21</ele>
        <time>2017-10-15T10:27:43Z</time>
      </trkpt>
      <trkpt lat="45.62418" lon="6.05119">
        <ele>1615.12</ele>
        <time>2017-10-15T10:28:04Z</time>
      </trkpt>
      <trkpt lat="45.62415" lon="6.05147">
        <ele>1614.25</ele>
        <time>2017-10-15T10:28:22Z</time>
      </trkpt>
      <trkpt lat="45.62399" lon="6.05136">
        <ele>1614.22</ele>
        <time>2017-10-15T10:57:46Z</time>
      </trkpt>
      <trkpt lat="45.62381" lon="6.05126">
        <ele>1613.09</ele>
        <time>2017-10-15T10:58:08Z</time>
      </trkpt>
      <trkpt lat="45.6237" lon="6.05107">
        <ele>1610.51</ele>
        <time>2017-10-15T10:58:32Z</time>
      </trkpt>
      <trkpt lat="45.62352" lon="6.05101">
        <ele>1609.48</ele>
        <time>2017-10-15T10:58:51Z</time>
      </trkpt>
      <trkpt lat="45.62334" lon="6.051">
        <ele>1608.41</ele>
        <time>2017-10-15T10:59:12Z</time>
      </trkpt>
      <trkpt lat="45.62339" lon="6.05126">
        <ele>1604.42</ele>
        <time>2017-10-15T11:00:00Z</time>
      </trkpt>
      <trkpt lat="45.62347" lon="6.0515">
        <ele>1603.48</ele>
        <time>2017-10-15T11:00:21Z</time>
      </trkpt>
      <trkpt lat="45.62348" lon="6.05177">
        <ele>1601.46</ele>
        <time>2017-10-15T11:00:34Z</time>
      </trkpt>
      <trkpt lat="45.62345" lon="6.05203">
        <ele>1599.25</ele>
        <time>2017-10-15T11:00:51Z</time>
      </trkpt>
      <trkpt lat="45.62339" lon="6.0523">
        <ele>1596.93</ele>
        <time>2017-10-15T11:01:06Z</time>
      </trkpt>
      <trkpt lat="45.62335" lon="6.05256">
        <ele>1593.67</ele>
        <time>2017-10-15T11:01:23Z</time>
      </trkpt>
      <trkpt lat="45.62329" lon="6.05281">
        <ele>1591.71</ele>
        <time>2017-10-15T11:01:38Z</time>
      </trkpt>
      <trkpt lat="45.62319" lon="6.05303">
        <ele>1589.23</ele>
        <time>2017-10-15T11:01:55Z</time>
      </trkpt>
      <trkpt lat="45.62313" lon="6.05328">
        <ele>1586.97</ele>
        <time>2017-10-15T11:02:12Z</time>
      </trkpt>
      <trkpt lat="45.62303" lon="6.05352">
        <ele>1584.35</ele>
        <time>2017-10-15T11:02:27Z</time>
      </trkpt>
      <trkpt lat="45.62292" lon="6.05372">
        <ele>1581.06</ele>
        <time>2017-10-15T11:02:44Z</time>
      </trkpt>
      <trkpt lat="45.62289" lon="6.05397">
        <ele>1577.06</ele>
        <time>2017-10-15T11:02:58Z</time>
      </trkpt>
      <trkpt lat="45.62274" lon="6.05413">
        <ele>1567.31</ele>
        <time>2017-10-15T11:04:32Z</time>
      </trkpt>
      <trkpt lat="45.62259" lon="6.05428">
        <ele>1561</ele>
        <time>2017-10-15T11:04:54Z</time>
      </trkpt>
      <trkpt lat="45.62249" lon="6.05406">
        <ele>1557.19</ele>
        <time>2017-10-15T11:05:14Z</time>
      </trkpt>
      <trkpt lat="45.62241" lon="6.05383">
        <ele>1554.32</ele>
        <time>2017-10-15T11:05:32Z</time>
      </trkpt>
      <trkpt lat="45.62225" lon="6.05367">
        <ele>1550.79</ele>
        <time>2017-10-15T11:05:50Z</time>
      </trkpt>
      <trkpt lat="45.6221" lon="6.05349">
        <ele>1547.83</ele>
        <time>2017-10-15T11:06:17Z</time>
      </trkpt>
      <trkpt lat="45.62199" lon="6.05328">
        <ele>1546.61</ele>
        <time>2017-10-15T11:06:33Z</time>
      </trkpt>
      <trkpt lat="45.62181" lon="6.05319">
        <ele>1543.97</ele>
        <time>2017-10-15T11:06:51Z</time>
      </trkpt>
      <trkpt lat="45.62163" lon="6.0531">
        <ele>1541.17</ele>
        <time>2017-10-15T11:07:10Z</time>
      </trkpt>
      <trkpt lat="45.62147" lon="6.05297">
        <ele>1537.8</ele>
        <time>2017-10-15T11:07:28Z</time>
      </trkpt>
      <trkpt lat="45.62136" lon="6.05274">
        <ele>1535.9</ele>
        <time>2017-10-15T11:09:55Z</time>
      </trkpt>
      <trkpt lat="45.62122" lon="6.05258">
        <ele>1530.07</ele>
        <time>2017-10-15T11:10:15Z</time>
      </trkpt>
      <trkpt lat="45.62112" lon="6.05235">
        <ele>1525.7</ele>
        <time>2017-10-15T11:10:38Z</time>
      </trkpt>
      <trkpt lat="45.62096" lon="6.0522">
        <ele>1523.1</ele>
        <time>2017-10-15T11:11:08Z</time>
      </trkpt>
      <trkpt lat="45.62093" lon="6.05194">
        <ele>1513.42</ele>
        <time>2017-10-15T11:11:57Z</time>
      </trkpt>
      <trkpt lat="45.62074" lon="6.05187">
        <ele>1507.23</ele>
        <time>2017-10-15T11:12:27Z</time>
      </trkpt>
      <trkpt lat="45.62057" lon="6.05197">
        <ele>1496.53</ele>
        <time>2017-10-15T11:13:10Z</time>
      </trkpt>
      <trkpt lat="45.62039" lon="6.05199">
        <ele>1490.16</ele>
        <time>2017-10-15T11:13:27Z</time>
      </trkpt>
      <trkpt lat="45.6202" lon="6.05199">
        <ele>1484.66</ele>
        <time>2017-10-15T11:13:39Z</time>
      </trkpt>
      <trkpt lat="45.62001" lon="6.05204">
        <ele>1479.02</ele>
        <time>2017-10-15T11:13:54Z</time>
      </trkpt>
      <trkpt lat="45.61982" lon="6.05208">
        <ele>1475.06</ele>
        <time>2017-10-15T11:14:08Z</time>
      </trkpt>
      <trkpt lat="45.61963" lon="6.05212">
        <ele>1470.6</ele>
        <time>2017-10-15T11:14:27Z</time>
      </trkpt>
      <trkpt lat="45.61944" lon="6.05214">
        <ele>1465.96</ele>
        <time>2017-10-15T11:14:46Z</time>
      </trkpt>
      <trkpt lat="45.61926" lon="6.05217">
        <ele>1459.42</ele>
        <time>2017-10-15T11:15:09Z</time>
      </trkpt>
      <trkpt lat="45.61907" lon="6.05216">
        <ele>1455.83</ele>
        <time>2017-10-15T11:15:25Z</time>
      </trkpt>
      <trkpt lat="45.61889" lon="6.05214">
        <ele>1448.07</ele>
        <time>2017-10-15T11:15:53Z</time>
      </trkpt>
      <trkpt lat="45.61871" lon="6.05208">
        <ele>1441.92</ele>
        <time>2017-10-15T11:16:11Z</time>
      </trkpt>
      <trkpt lat="45.61853" lon="6.0521">
        <ele>1433.89</ele>
        <time>2017-10-15T11:16:36Z</time>
      </trkpt>
      <trkpt lat="45.61835" lon="6.05208">
        <ele>1426.53</ele>
        <time>2017-10-15T11:16:58Z</time>
      </trkpt>
      <trkpt lat="45.61818" lon="6.05196">
        <ele>1419.99</ele>
        <time>2017-10-15T11:17:19Z</time>
      </trkpt>
      <trkpt lat="45.61803" lon="6.0518">
        <ele>1414.07</ele>
        <time>2017-10-15T11:17:39Z</time>
      </trkpt>
      <trkpt lat="45.61792" lon="6.05159">
        <ele>1405.17</ele>
        <time>2017-10-15T11:18:17Z</time>
      </trkpt>
      <trkpt lat="45.61776" lon="6.05146">
        <ele>1400.5</ele>
        <time>2017-10-15T11:18:35Z</time>
      </trkpt>
      <trkpt lat="45.61758" lon="6.05146">
        <ele>1393.96</ele>
        <time>2017-10-15T11:19:00Z</time>
      </trkpt>
      <trkpt lat="45.61752" lon="6.05149">
        <ele>1392.28</ele>
        <time>2017-10-15T11:19:06Z</time>
      </trkpt>
      <trkpt lat="45.61737" lon="6.05134">
        <ele>1386.2</ele>
        <time>2017-10-15T11:19:31Z</time>
      </trkpt>
      <trkpt lat="45.61719" lon="6.05126">
        <ele>1375.06</ele>
        <time>2017-10-15T11:20:06Z</time>
      </trkpt>
      <trkpt lat="45.61702" lon="6.05137">
        <ele>1368.65</ele>
        <time>2017-10-15T11:20:22Z</time>
      </trkpt>
      <trkpt lat="45.61683" lon="6.05137">
        <ele>1356.32</ele>
        <time>2017-10-15T11:20:56Z</time>
      </trkpt>
      <trkpt lat="45.61666" lon="6.05145">
        <ele>1354.11</ele>
        <time>2017-10-15T11:21:10Z</time>
      </trkpt>
      <trkpt lat="45.61648" lon="6.05138">
        <ele>1351.07</ele>
        <time>2017-10-15T11:21:34Z</time>
      </trkpt>
      <trkpt lat="45.6163" lon="6.0513">
        <ele>1347.82</ele>
        <time>2017-10-15T11:21:52Z</time>
      </trkpt>
      <trkpt lat="45.61619" lon="6.05109">
        <ele>1343.97</ele>
        <time>2017-10-15T11:22:19Z</time>
      </trkpt>
      <trkpt lat="45.61605" lon="6.0509">
        <ele>1339.75</ele>
        <time>2017-10-15T11:22:34Z</time>
      </trkpt>
      <trkpt lat="45.61588" lon="6.05079">
        <ele>1332.56</ele>
        <time>2017-10-15T11:23:03Z</time>
      </trkpt>
      <trkpt lat="45.6157" lon="6.05072">
        <ele>1328.08</ele>
        <time>2017-10-15T11:23:26Z</time>
      </trkpt>
      <trkpt lat="45.61553" lon="6.05063">
        <ele>1319.44</ele>
        <time>2017-10-15T11:24:00Z</time>
      </trkpt>
      <trkpt lat="45.61535" lon="6.05066">
        <ele>1295.02</ele>
        <time>2017-10-15T11:25:07Z</time>
      </trkpt>
      <trkpt lat="45.61529" lon="6.05041">
        <ele>1289.28</ele>
        <time>2017-10-15T11:25:27Z</time>
      </trkpt>
      <trkpt lat="45.61512" lon="6.05028">
        <ele>1285.56</ele>
        <time>2017-10-15T11:25:54Z</time>
      </trkpt>
      <trkpt lat="45.61496" lon="6.05016">
        <ele>1284.17</ele>
        <time>2017-10-15T11:26:17Z</time>
      </trkpt>
      <trkpt lat="45.61488" lon="6.04992">
        <ele>1280.34</ele>
        <time>2017-10-15T11:26:53Z</time>
      </trkpt>
      <trkpt lat="45.61472" lon="6.04979">
        <ele>1277.14</ele>
        <time>2017-10-15T11:27:10Z</time>
      </trkpt>
      <trkpt lat="45.61455" lon="6.0497">
        <ele>1271.03</ele>
        <time>2017-10-15T11:27:33Z</time>
      </trkpt>
      <trkpt lat="45.6145" lon="6.04944">
        <ele>1265.08</ele>
        <time>2017-10-15T11:28:03Z</time>
      </trkpt>
      <trkpt lat="45.61437" lon="6.04926">
        <ele>1261.07</ele>
        <time>2017-10-15T11:28:18Z</time>
      </trkpt>
      <trkpt lat="45.61442" lon="6.04902">
        <ele>1255.52</ele>
        <time>2017-10-15T11:28:49Z</time>
      </trkpt>
      <trkpt lat="45.61443" lon="6.04875">
        <ele>1246.69</ele>
        <time>2017-10-15T11:29:30Z</time>
      </trkpt>
      <trkpt lat="45.61437" lon="6.0485">
        <ele>1238.6</ele>
        <time>2017-10-15T11:29:58Z</time>
      </trkpt>
      <trkpt lat="45.61441" lon="6.04825">
        <ele>1225.09</ele>
        <time>2017-10-15T11:30:34Z</time>
      </trkpt>
      <trkpt lat="45.61428" lon="6.04807">
        <ele>1212.89</ele>
        <time>2017-10-15T11:31:15Z</time>
      </trkpt>
      <trkpt lat="45.6141" lon="6.04811">
        <ele>1206.58</ele>
        <time>2017-10-15T11:31:33Z</time>
      </trkpt>
      <trkpt lat="45.61392" lon="6.04818">
        <ele>1203.23</ele>
        <time>2017-10-15T11:31:44Z</time>
      </trkpt>
      <trkpt lat="45.61376" lon="6.04804">
        <ele>1199.91</ele>
        <time>2017-10-15T11:31:57Z</time>
      </trkpt>
      <trkpt lat="45.61358" lon="6.04797">
        <ele>1196.64</ele>
        <time>2017-10-15T11:32:11Z</time>
      </trkpt>
      <trkpt lat="45.6134" lon="6.04794">
        <ele>1194.11</ele>
        <time>2017-10-15T11:32:25Z</time>
      </trkpt>
      <trkpt lat="45.61321" lon="6.04791">
        <ele>1189.81</ele>
        <time>2017-10-15T11:32:42Z</time>
      </trkpt>
      <trkpt lat="45.61303" lon="6.04785">
        <ele>1185.83</ele>
        <time>2017-10-15T11:32:57Z</time>
      </trkpt>
      <trkpt lat="45.61291" lon="6.04765">
        <ele>1182.42</ele>
        <time>2017-10-15T11:33:11Z</time>
      </trkpt>
      <trkpt lat="45.61281" lon="6.04743">
        <ele>1179.07</ele>
        <time>2017-10-15T11:33:33Z</time>
      </trkpt>
      <trkpt lat="45.6127" lon="6.04721">
        <ele>1175.38</ele>
        <time>2017-10-15T11:33:48Z</time>
      </trkpt>
      <trkpt lat="45.61254" lon="6.04704">
        <ele>1171.47</ele>
        <time>2017-10-15T11:34:02Z</time>
      </trkpt>
      <trkpt lat="45.61236" lon="6.04697">
        <ele>1166.91</ele>
        <time>2017-10-15T11:34:19Z</time>
      </trkpt>
      <trkpt lat="45.61217" lon="6.04698">
        <ele>1162.88</ele>
        <time>2017-10-15T11:34:36Z</time>
      </trkpt>
      <trkpt lat="45.61201" lon="6.04687">
        <ele>1158.88</ele>
        <time>2017-10-15T11:34:54Z</time>
      </trkpt>
      <trkpt lat="45.61184" lon="6.04673">
        <ele>1154.33</ele>
        <time>2017-10-15T11:35:10Z</time>
      </trkpt>
      <trkpt lat="45.61169" lon="6.04657">
        <ele>1149.19</ele>
        <time>2017-10-15T11:35:27Z</time>
      </trkpt>
      <trkpt lat="45.61151" lon="6.04646">
        <ele>1144.14</ele>
        <time>2017-10-15T11:35:45Z</time>
      </trkpt>
      <trkpt lat="45.61136" lon="6.04633">
        <ele>1138.79</ele>
        <time>2017-10-15T11:36:02Z</time>
      </trkpt>
      <trkpt lat="45.61119" lon="6.0462">
        <ele>1132.89</ele>
        <time>2017-10-15T11:36:22Z</time>
      </trkpt>
      <trkpt lat="45.611" lon="6.04612">
        <ele>1129.92</ele>
        <time>2017-10-15T11:36:34Z</time>
      </trkpt>
      <trkpt lat="45.61082" lon="6.04605">
        <ele>1126.07</ele>
        <time>2017-10-15T11:36:51Z</time>
      </trkpt>
      <trkpt lat="45.61064" lon="6.04598">
        <ele>1121.55</ele>
        <time>2017-10-15T11:37:10Z</time>
      </trkpt>
      <trkpt lat="45.61048" lon="6.04588">
        <ele>1117.33</ele>
        <time>2017-10-15T11:37:28Z</time>
      </trkpt>
      <trkpt lat="45.61031" lon="6.04574">
        <ele>1112.85</ele>
        <time>2017-10-15T11:37:44Z</time>
      </trkpt>
      <trkpt lat="45.61019" lon="6.04552">
        <ele>1109.88</ele>
        <time>2017-10-15T11:37:59Z</time>
      </trkpt>
      <trkpt lat="45.61005" lon="6.04535">
        <ele>1106.89</ele>
        <time>2017-10-15T11:38:16Z</time>
      </trkpt>
      <trkpt lat="45.60988" lon="6.04524">
        <ele>1102.3</ele>
        <time>2017-10-15T11:38:40Z</time>
      </trkpt>
      <trkpt lat="45.60972" lon="6.04509">
        <ele>1098.18</ele>
        <time>2017-10-15T11:38:56Z</time>
      </trkpt>
      <trkpt lat="45.60955" lon="6.04502">
        <ele>1092.3</ele>
        <time>2017-10-15T11:39:16Z</time>
      </trkpt>
      <trkpt lat="45.60938" lon="6.04491">
        <ele>1089.15</ele>
        <time>2017-10-15T11:39:30Z</time>
      </trkpt>
      <trkpt lat="45.60924" lon="6.04475">
        <ele>1086.43</ele>
        <time>2017-10-15T11:39:47Z</time>
      </trkpt>
      <trkpt lat="45.60911" lon="6.04456">
        <ele>1081.98</ele>
        <time>2017-10-15T11:40:08Z</time>
      </trkpt>
      <trkpt lat="45.60898" lon="6.04436">
        <ele>1075.65</ele>
        <time>2017-10-15T11:40:31Z</time>
      </trkpt>
      <trkpt lat="45.60886" lon="6.04416">
        <ele>1070.5</ele>
        <time>2017-10-15T11:41:18Z</time>
      </trkpt>
      <trkpt lat="45.60868" lon="6.04407">
        <ele>1065.46</ele>
        <time>2017-10-15T11:42:07Z</time>
      </trkpt>
      <trkpt lat="45.6086" lon="6.04385">
        <ele>1061.78</ele>
        <time>2017-10-15T11:42:34Z</time>
      </trkpt>
      <trkpt lat="45.60859" lon="6.04359">
        <ele>1060.42</ele>
        <time>2017-10-15T11:42:54Z</time>
      </trkpt>
      <trkpt lat="45.60859" lon="6.04332">
        <ele>1055.82</ele>
        <time>2017-10-15T11:43:23Z</time>
      </trkpt>
      <trkpt lat="45.60851" lon="6.04306">
        <ele>1038.4</ele>
        <time>2017-10-15T11:44:36Z</time>
      </trkpt>
      <trkpt lat="45.60843" lon="6.04283">
        <ele>1034.81</ele>
        <time>2017-10-15T11:44:48Z</time>
      </trkpt>
      <trkpt lat="45.60832" lon="6.04261">
        <ele>1028.94</ele>
        <time>2017-10-15T11:45:06Z</time>
      </trkpt>
      <trkpt lat="45.60824" lon="6.04237">
        <ele>1024.97</ele>
        <time>2017-10-15T11:45:20Z</time>
      </trkpt>
      <trkpt lat="45.60819" lon="6.04212">
        <ele>1019.34</ele>
        <time>2017-10-15T11:46:05Z</time>
      </trkpt>
      <trkpt lat="45.60831" lon="6.04192">
        <ele>1014.63</ele>
        <time>2017-10-15T11:46:27Z</time>
      </trkpt>
      <trkpt lat="45.60842" lon="6.04171">
        <ele>1011.75</ele>
        <time>2017-10-15T11:46:40Z</time>
      </trkpt>
      <trkpt lat="45.6085" lon="6.04147">
        <ele>1005.74</ele>
        <time>2017-10-15T11:47:18Z</time>
      </trkpt>
      <trkpt lat="45.60851" lon="6.0412">
        <ele>1002.06</ele>
        <time>2017-10-15T11:47:44Z</time>
      </trkpt>
      <trkpt lat="45.60851" lon="6.04094">
        <ele>997.55</ele>
        <time>2017-10-15T11:48:05Z</time>
      </trkpt>
      <trkpt lat="45.60869" lon="6.04085">
        <ele>991.54</ele>
        <time>2017-10-15T11:48:28Z</time>
      </trkpt>
      <trkpt lat="45.6086" lon="6.04062">
        <ele>981.04</ele>
        <time>2017-10-15T11:49:57Z</time>
      </trkpt>
      <trkpt lat="45.60859" lon="6.04036">
        <ele>979.93</ele>
        <time>2017-10-15T11:50:13Z</time>
      </trkpt>
      <trkpt lat="45.60862" lon="6.0401">
        <ele>978.25</ele>
        <time>2017-10-15T11:50:36Z</time>
      </trkpt>
      <trkpt lat="45.6088" lon="6.03998">
        <ele>975.63</ele>
        <time>2017-10-15T11:50:47Z</time>
      </trkpt>
      <trkpt lat="45.60898" lon="6.04">
        <ele>971.94</ele>
        <time>2017-10-15T11:51:11Z</time>
      </trkpt>
      <trkpt lat="45.60917" lon="6.04002">
        <ele>971.05</ele>
        <time>2017-10-15T11:51:28Z</time>
      </trkpt>
      <trkpt lat="45.60935" lon="6.03993">
        <ele>971.5</ele>
        <time>2017-10-15T11:51:48Z</time>
      </trkpt>
      <trkpt lat="45.60952" lon="6.04002">
        <ele>969.23</ele>
        <time>2017-10-15T11:52:02Z</time>
      </trkpt>
      <trkpt lat="45.60969" lon="6.04016">
        <ele>964.32</ele>
        <time>2017-10-15T11:52:16Z</time>
      </trkpt>
      <trkpt lat="45.60982" lon="6.04035">
        <ele>961.85</ele>
        <time>2017-10-15T11:52:26Z</time>
      </trkpt>
      <trkpt lat="45.60999" lon="6.04024">
        <ele>963.3</ele>
        <time>2017-10-15T11:52:59Z</time>
      </trkpt>
      <trkpt lat="45.61012" lon="6.04006">
        <ele>963.75</ele>
        <time>2017-10-15T11:53:17Z</time>
      </trkpt>
      <trkpt lat="45.61027" lon="6.03991">
        <ele>964.22</ele>
        <time>2017-10-15T11:53:34Z</time>
      </trkpt>
      <trkpt lat="45.61045" lon="6.03984">
        <ele>964.68</ele>
        <time>2017-10-15T11:53:48Z</time>
      </trkpt>
      <trkpt lat="45.61064" lon="6.03982">
        <ele>965.4</ele>
        <time>2017-10-15T11:54:05Z</time>
      </trkpt>
      <trkpt lat="45.6108" lon="6.03995">
        <ele>966.92</ele>
        <time>2017-10-15T11:54:25Z</time>
      </trkpt>
      <trkpt lat="45.61098" lon="6.03987">
        <ele>967.84</ele>
        <time>2017-10-15T11:54:43Z</time>
      </trkpt>
      <trkpt lat="45.61112" lon="6.03969">
        <ele>968.12</ele>
        <time>2017-10-15T11:54:55Z</time>
      </trkpt>
      <trkpt lat="45.61126" lon="6.03951">
        <ele>968.71</ele>
        <time>2017-10-15T11:55:18Z</time>
      </trkpt>
      <trkpt lat="45.61144" lon="6.03945">
        <ele>969.33</ele>
        <time>2017-10-15T11:55:36Z</time>
      </trkpt>
      <trkpt lat="45.61164" lon="6.03943">
        <ele>969.61</ele>
        <time>2017-10-15T11:55:56Z</time>
      </trkpt>
      <trkpt lat="45.61182" lon="6.03936">
        <ele>969.68</ele>
        <time>2017-10-15T11:56:10Z</time>
      </trkpt>
      <trkpt lat="45.612" lon="6.03937">
        <ele>968.25</ele>
        <time>2017-10-15T11:56:32Z</time>
      </trkpt>
      <trkpt lat="45.61218" lon="6.03948">
        <ele>968.39</ele>
        <time>2017-10-15T11:56:48Z</time>
      </trkpt>
      <trkpt lat="45.61237" lon="6.03949">
        <ele>971.01</ele>
        <time>2017-10-15T11:57:07Z</time>
      </trkpt>
      <trkpt lat="45.61254" lon="6.03958">
        <ele>972.36</ele>
        <time>2017-10-15T11:57:27Z</time>
      </trkpt>
      <trkpt lat="45.6127" lon="6.03973">
        <ele>972.22</ele>
        <time>2017-10-15T11:57:42Z</time>
      </trkpt>
      <trkpt lat="45.61287" lon="6.03983">
        <ele>972.15</ele>
        <time>2017-10-15T11:57:56Z</time>
      </trkpt>
      <trkpt lat="45.61306" lon="6.0399">
        <ele>972.31</ele>
        <time>2017-10-15T11:58:13Z</time>
      </trkpt>
      <trkpt lat="45.61323" lon="6.04">
        <ele>970.53</ele>
        <time>2017-10-15T11:58:32Z</time>
      </trkpt>
      <trkpt lat="45.61339" lon="6.04012">
        <ele>967.36</ele>
        <time>2017-10-15T11:58:45Z</time>
      </trkpt>
      <trkpt lat="45.61351" lon="6.04033">
        <ele>965.79</ele>
        <time>2017-10-15T11:59:09Z</time>
      </trkpt>
      <trkpt lat="45.61363" lon="6.04053">
        <ele>964.05</ele>
        <time>2017-10-15T11:59:27Z</time>
      </trkpt>
      <trkpt lat="45.61379" lon="6.04069">
        <ele>962.02</ele>
        <time>2017-10-15T11:59:45Z</time>
      </trkpt>
      <trkpt lat="45.61393" lon="6.04085">
        <ele>962.04</ele>
        <time>2017-10-15T11:59:59Z</time>
      </trkpt>
      <trkpt lat="45.61404" lon="6.0411">
        <ele>960.22</ele>
        <time>2017-10-15T12:00:16Z</time>
      </trkpt>
      <trkpt lat="45.61407" lon="6.04137">
        <ele>956.74</ele>
        <time>2017-10-15T12:00:38Z</time>
      </trkpt>
      <trkpt lat="45.61421" lon="6.04118">
        <ele>961.54</ele>
        <time>2017-10-15T12:01:06Z</time>
      </trkpt>
      <trkpt lat="45.61427" lon="6.04093">
        <ele>963.53</ele>
        <time>2017-10-15T12:01:28Z</time>
      </trkpt>
      <trkpt lat="45.61432" lon="6.04067">
        <ele>963.27</ele>
        <time>2017-10-15T12:01:47Z</time>
      </trkpt>
      <trkpt lat="45.6145" lon="6.04056">
        <ele>964.07</ele>
        <time>2017-10-15T12:02:03Z</time>
      </trkpt>
      <trkpt lat="45.61468" lon="6.04051">
        <ele>967.45</ele>
        <time>2017-10-15T12:02:20Z</time>
      </trkpt>
      <trkpt lat="45.61486" lon="6.04054">
        <ele>968.22</ele>
        <time>2017-10-15T12:02:27Z</time>
      </trkpt>
      <trkpt lat="45.61503" lon="6.04064">
        <ele>967.52</ele>
        <time>2017-10-15T12:02:46Z</time>
      </trkpt>
      <trkpt lat="45.61515" lon="6.04084">
        <ele>965.7</ele>
        <time>2017-10-15T12:02:59Z</time>
      </trkpt>
      <trkpt lat="45.61529" lon="6.04102">
        <ele>965.04</ele>
        <time>2017-10-15T12:03:12Z</time>
      </trkpt>
      <trkpt lat="45.61541" lon="6.04123">
        <ele>966</ele>
        <time>2017-10-15T12:03:28Z</time>
      </trkpt>
      <trkpt lat="45.61551" lon="6.04146">
        <ele>966.2</ele>
        <time>2017-10-15T12:03:47Z</time>
      </trkpt>
      <trkpt lat="45.6156" lon="6.04171">
        <ele>965.66</ele>
        <time>2017-10-15T12:04:04Z</time>
      </trkpt>
      <trkpt lat="45.61565" lon="6.04196">
        <ele>964.74</ele>
        <time>2017-10-15T12:04:28Z</time>
      </trkpt>
      <trkpt lat="45.61576" lon="6.04218">
        <ele>968.66</ele>
        <time>2017-10-15T12:04:54Z</time>
      </trkpt>
      <trkpt lat="45.61591" lon="6.04234">
        <ele>971.89</ele>
        <time>2017-10-15T12:05:16Z</time>
      </trkpt>
      <trkpt lat="45.61589" lon="6.04206">
        <ele>975.22</ele>
        <time>2017-10-15T12:05:50Z</time>
      </trkpt>
      <trkpt lat="45.61593" lon="6.04176">
        <ele>978.86</ele>
        <time>2017-10-15T12:06:11Z</time>
      </trkpt>
      <trkpt lat="45.61605" lon="6.04155">
        <ele>984.95</ele>
        <time>2017-10-15T12:06:30Z</time>
      </trkpt>
      <trkpt lat="45.61616" lon="6.04133">
        <ele>987.34</ele>
        <time>2017-10-15T12:06:43Z</time>
      </trkpt>
      <trkpt lat="45.61627" lon="6.04112">
        <ele>986.28</ele>
        <time>2017-10-15T12:07:01Z</time>
      </trkpt>
      <trkpt lat="45.61642" lon="6.04096">
        <ele>986.47</ele>
        <time>2017-10-15T12:07:22Z</time>
      </trkpt>
      <trkpt lat="45.6166" lon="6.04099">
        <ele>986.21</ele>
        <time>2017-10-15T12:07:38Z</time>
      </trkpt>
      <trkpt lat="45.61678" lon="6.04108">
        <ele>987.2</ele>
        <time>2017-10-15T12:08:03Z</time>
      </trkpt>
      <trkpt lat="45.61696" lon="6.04111">
        <ele>990.16</ele>
        <time>2017-10-15T12:08:21Z</time>
      </trkpt>
      <trkpt lat="45.61714" lon="6.04113">
        <ele>993.98</ele>
        <time>2017-10-15T12:08:34Z</time>
      </trkpt>
      <trkpt lat="45.61732" lon="6.04118">
        <ele>1002.39</ele>
        <time>2017-10-15T12:08:52Z</time>
      </trkpt>
      <trkpt lat="45.61749" lon="6.04128">
        <ele>1010.84</ele>
        <time>2017-10-15T12:09:12Z</time>
      </trkpt>
      <trkpt lat="45.61744" lon="6.04103">
        <ele>1011.87</ele>
        <time>2017-10-15T12:09:49Z</time>
      </trkpt>
      <trkpt lat="45.61734" lon="6.0408">
        <ele>1007.45</ele>
        <time>2017-10-15T12:10:15Z</time>
      </trkpt>
      <trkpt lat="45.61727" lon="6.04057">
        <ele>1004.23</ele>
        <time>2017-10-15T12:10:32Z</time>
      </trkpt>
      <trkpt lat="45.61722" lon="6.04032">
        <ele>1001.86</ele>
        <time>2017-10-15T12:10:54Z</time>
      </trkpt>
      <trkpt lat="45.61732" lon="6.0401">
        <ele>1001.89</ele>
        <time>2017-10-15T12:11:22Z</time>
      </trkpt>
      <trkpt lat="45.61749" lon="6.04002">
        <ele>1000.94</ele>
        <time>2017-10-15T12:11:39Z</time>
      </trkpt>
      <trkpt lat="45.61768" lon="6.04003">
        <ele>1000.89</ele>
        <time>2017-10-15T12:12:06Z</time>
      </trkpt>
      <trkpt lat="45.61786" lon="6.04003">
        <ele>1001.43</ele>
        <time>2017-10-15T12:12:18Z</time>
      </trkpt>
      <trkpt lat="45.618" lon="6.03986">
        <ele>1004.32</ele>
        <time>2017-10-15T12:12:45Z</time>
      </trkpt>
      <trkpt lat="45.61809" lon="6.03963">
        <ele>1005.74</ele>
        <time>2017-10-15T12:13:02Z</time>
      </trkpt>
      <trkpt lat="45.6182" lon="6.03942">
        <ele>1007.27</ele>
        <time>2017-10-15T12:13:16Z</time>
      </trkpt>
      <trkpt lat="45.61835" lon="6.03928">
        <ele>1008.34</ele>
        <time>2017-10-15T12:13:33Z</time>
      </trkpt>
      <trkpt lat="45.61853" lon="6.03934">
        <ele>1009.45</ele>
        <time>2017-10-15T12:13:55Z</time>
      </trkpt>
      <trkpt lat="45.61868" lon="6.03952">
        <ele>1011.5</ele>
        <time>2017-10-15T12:14:11Z</time>
      </trkpt>
      <trkpt lat="45.61886" lon="6.03962">
        <ele>1014.98</ele>
        <time>2017-10-15T12:14:31Z</time>
      </trkpt>
      <trkpt lat="45.61904" lon="6.03966">
        <ele>1016.65</ele>
        <time>2017-10-15T12:14:38Z</time>
      </trkpt>
      <trkpt lat="45.61923" lon="6.03967">
        <ele>1022.75</ele>
        <time>2017-10-15T12:14:57Z</time>
      </trkpt>
      <trkpt lat="45.61925" lon="6.0394">
        <ele>1027.26</ele>
        <time>2017-10-15T12:15:22Z</time>
      </trkpt>
      <trkpt lat="45.61914" lon="6.03919">
        <ele>1033.13</ele>
        <time>2017-10-15T12:15:45Z</time>
      </trkpt>
      <trkpt lat="45.61917" lon="6.03893">
        <ele>1032.29</ele>
        <time>2017-10-15T12:16:12Z</time>
      </trkpt>
      <trkpt lat="45.61924" lon="6.03868">
        <ele>1028.9</ele>
        <time>2017-10-15T12:16:36Z</time>
      </trkpt>
      <trkpt lat="45.6193" lon="6.03842">
        <ele>1026.28</ele>
        <time>2017-10-15T12:16:57Z</time>
      </trkpt>
      <trkpt lat="45.61935" lon="6.03817">
        <ele>1024.29</ele>
        <time>2017-10-15T12:17:16Z</time>
      </trkpt>
      <trkpt lat="45.61942" lon="6.03792">
        <ele>1022.2</ele>
        <time>2017-10-15T12:17:45Z</time>
      </trkpt>
      <trkpt lat="45.61957" lon="6.03774">
        <ele>1023.31</ele>
        <time>2017-10-15T12:18:03Z</time>
      </trkpt>
      <trkpt lat="45.61968" lon="6.03754">
        <ele>1025.78</ele>
        <time>2017-10-15T12:18:21Z</time>
      </trkpt>
      <trkpt lat="45.61956" lon="6.03734">
        <ele>1024.82</ele>
        <time>2017-10-15T12:19:02Z</time>
      </trkpt>
      <trkpt lat="45.61946" lon="6.03712">
        <ele>1023.74</ele>
        <time>2017-10-15T12:19:23Z</time>
      </trkpt>
      <trkpt lat="45.61937" lon="6.03689">
        <ele>1027.63</ele>
        <time>2017-10-15T12:19:47Z</time>
      </trkpt>
      <trkpt lat="45.61921" lon="6.03673">
        <ele>1031.52</ele>
        <time>2017-10-15T12:20:14Z</time>
      </trkpt>
      <trkpt lat="45.61907" lon="6.03656">
        <ele>1034.7</ele>
        <time>2017-10-15T12:20:37Z</time>
      </trkpt>
      <trkpt lat="45.61896" lon="6.03634">
        <ele>1038.09</ele>
        <time>2017-10-15T12:20:58Z</time>
      </trkpt>
      <trkpt lat="45.6189" lon="6.03609">
        <ele>1042.24</ele>
        <time>2017-10-15T12:21:17Z</time>
      </trkpt>
      <trkpt lat="45.61882" lon="6.03583">
        <ele>1044.4</ele>
        <time>2017-10-15T12:21:32Z</time>
      </trkpt>
      <trkpt lat="45.61875" lon="6.03559">
        <ele>1047.57</ele>
        <time>2017-10-15T12:21:50Z</time>
      </trkpt>
      <trkpt lat="45.61869" lon="6.03534">
        <ele>1049.47</ele>
        <time>2017-10-15T12:22:06Z</time>
      </trkpt>
      <trkpt lat="45.61858" lon="6.03513">
        <ele>1048.33</ele>
        <time>2017-10-15T12:22:26Z</time>
      </trkpt>
      <trkpt lat="45.61848" lon="6.03489">
        <ele>1047.96</ele>
        <time>2017-10-15T12:22:40Z</time>
      </trkpt>
      <trkpt lat="45.61848" lon="6.03463">
        <ele>1046.89</ele>
        <time>2017-10-15T12:22:56Z</time>
      </trkpt>
      <trkpt lat="45.61837" lon="6.0344">
        <ele>1046.07</ele>
        <time>2017-10-15T12:23:13Z</time>
      </trkpt>
      <trkpt lat="45.61828" lon="6.03417">
        <ele>1045.88</ele>
        <time>2017-10-15T12:23:28Z</time>
      </trkpt>
      <trkpt lat="45.61822" lon="6.03392">
        <ele>1048.09</ele>
        <time>2017-10-15T12:23:51Z</time>
      </trkpt>
      <trkpt lat="45.61812" lon="6.0337">
        <ele>1051</ele>
        <time>2017-10-15T12:24:09Z</time>
      </trkpt>
      <trkpt lat="45.61811" lon="6.03343">
        <ele>1055.18</ele>
        <time>2017-10-15T12:24:51Z</time>
      </trkpt>
      <trkpt lat="45.61817" lon="6.03317">
        <ele>1055.51</ele>
        <time>2017-10-15T12:25:04Z</time>
      </trkpt>
      <trkpt lat="45.61814" lon="6.03292">
        <ele>1055.72</ele>
        <time>2017-10-15T12:25:34Z</time>
      </trkpt>
      <trkpt lat="45.61807" lon="6.03268">
        <ele>1056.11</ele>
        <time>2017-10-15T12:25:54Z</time>
      </trkpt>
      <trkpt lat="45.61802" lon="6.03243">
        <ele>1063.09</ele>
        <time>2017-10-15T12:26:52Z</time>
      </trkpt>
      <trkpt lat="45.61801" lon="6.03217">
        <ele>1066.38</ele>
        <time>2017-10-15T12:27:32Z</time>
      </trkpt>
      <trkpt lat="45.61802" lon="6.03191">
        <ele>1067.6</ele>
        <time>2017-10-15T12:27:59Z</time>
      </trkpt>
      <trkpt lat="45.61804" lon="6.03165">
        <ele>1066.5</ele>
        <time>2017-10-15T12:28:27Z</time>
      </trkpt>
      <trkpt lat="45.61819" lon="6.03146">
        <ele>1064.33</ele>
        <time>2017-10-15T12:29:00Z</time>
      </trkpt>
      <trkpt lat="45.61825" lon="6.0312">
        <ele>1063.97</ele>
        <time>2017-10-15T12:29:23Z</time>
      </trkpt>
      <trkpt lat="45.61822" lon="6.03095">
        <ele>1064.25</ele>
        <time>2017-10-15T12:29:46Z</time>
      </trkpt>
      <trkpt lat="45.6183" lon="6.03072">
        <ele>1065.13</ele>
        <time>2017-10-15T12:30:09Z</time>
      </trkpt>
      <trkpt lat="45.61838" lon="6.03049">
        <ele>1069.99</ele>
        <time>2017-10-15T12:30:27Z</time>
      </trkpt>
      <trkpt lat="45.61841" lon="6.03022">
        <ele>1081.27</ele>
        <time>2017-10-15T12:31:26Z</time>
      </trkpt>
      <trkpt lat="45.61848" lon="6.02997">
        <ele>1083.52</ele>
        <time>2017-10-15T12:31:52Z</time>
      </trkpt>
      <trkpt lat="45.61865" lon="6.02986">
        <ele>1083.34</ele>
        <time>2017-10-15T12:32:16Z</time>
      </trkpt>
      <trkpt lat="45.6187" lon="6.02961">
        <ele>1084.92</ele>
        <time>2017-10-15T12:32:40Z</time>
      </trkpt>
      <trkpt lat="45.61865" lon="6.02934">
        <ele>1090.19</ele>
        <time>2017-10-15T12:32:59Z</time>
      </trkpt>
      <trkpt lat="45.61857" lon="6.02911">
        <ele>1094.5</ele>
        <time>2017-10-15T12:33:16Z</time>
      </trkpt>
      <trkpt lat="45.61855" lon="6.02884">
        <ele>1095.36</ele>
        <time>2017-10-15T12:33:31Z</time>
      </trkpt>
      <trkpt lat="45.61855" lon="6.02857">
        <ele>1093.59</ele>
        <time>2017-10-15T12:33:48Z</time>
      </trkpt>
      <trkpt lat="45.61851" lon="6.02832">
        <ele>1094.05</ele>
        <time>2017-10-15T12:34:06Z</time>
      </trkpt>
      <trkpt lat="45.6185" lon="6.02805">
        <ele>1094.23</ele>
        <time>2017-10-15T12:34:30Z</time>
      </trkpt>
      <trkpt lat="45.61847" lon="6.02779">
        <ele>1095.92</ele>
        <time>2017-10-15T12:34:52Z</time>
      </trkpt>
      <trkpt lat="45.61849" lon="6.02752">
        <ele>1098.99</ele>
        <time>2017-10-15T12:35:11Z</time>
      </trkpt>
      <trkpt lat="45.61857" lon="6.02727">
        <ele>1101.34</ele>
        <time>2017-10-15T12:35:30Z</time>
      </trkpt>
      <trkpt lat="45.61865" lon="6.02704">
        <ele>1103.37</ele>
        <time>2017-10-15T12:35:47Z</time>
      </trkpt>
      <trkpt lat="45.61871" lon="6.02679">
        <ele>1105.18</ele>
        <time>2017-10-15T12:36:04Z</time>
      </trkpt>
      <trkpt lat="45.61881" lon="6.02656">
        <ele>1105.67</ele>
        <time>2017-10-15T12:36:21Z</time>
      </trkpt>
      <trkpt lat="45.61889" lon="6.02631">
        <ele>1105.34</ele>
        <time>2017-10-15T12:36:39Z</time>
      </trkpt>
      <trkpt lat="45.61898" lon="6.02608">
        <ele>1104.15</ele>
        <time>2017-10-15T12:36:56Z</time>
      </trkpt>
      <trkpt lat="45.61904" lon="6.02583">
        <ele>1100.42</ele>
        <time>2017-10-15T12:37:12Z</time>
      </trkpt>
      <trkpt lat="45.61911" lon="6.02558">
        <ele>1096.32</ele>
        <time>2017-10-15T12:37:27Z</time>
      </trkpt>
      <trkpt lat="45.61917" lon="6.02533">
        <ele>1091.33</ele>
        <time>2017-10-15T12:37:47Z</time>
      </trkpt>
      <trkpt lat="45.61929" lon="6.02513">
        <ele>1089.1</ele>
        <time>2017-10-15T12:38:00Z</time>
      </trkpt>
      <trkpt lat="45.61942" lon="6.02495">
        <ele>1089.06</ele>
        <time>2017-10-15T12:38:15Z</time>
      </trkpt>
      <trkpt lat="45.61954" lon="6.02471">
        <ele>1089.2</ele>
        <time>2017-10-15T12:38:31Z</time>
      </trkpt>
      <trkpt lat="45.61965" lon="6.0245">
        <ele>1090.03</ele>
        <time>2017-10-15T12:38:49Z</time>
      </trkpt>
      <trkpt lat="45.61976" lon="6.02427">
        <ele>1089.19</ele>
        <time>2017-10-15T12:39:04Z</time>
      </trkpt>
      <trkpt lat="45.61992" lon="6.02412">
        <ele>1087.75</ele>
        <time>2017-10-15T12:39:29Z</time>
      </trkpt>
      <trkpt lat="45.62007" lon="6.02395">
        <ele>1086.86</ele>
        <time>2017-10-15T12:39:44Z</time>
      </trkpt>
      <trkpt lat="45.62022" lon="6.02381">
        <ele>1083.86</ele>
        <time>2017-10-15T12:40:06Z</time>
      </trkpt>
      <trkpt lat="45.62035" lon="6.02362">
        <ele>1081.77</ele>
        <time>2017-10-15T12:40:28Z</time>
      </trkpt>
      <trkpt lat="45.62049" lon="6.02347">
        <ele>1076.78</ele>
        <time>2017-10-15T12:41:23Z</time>
      </trkpt>
      <trkpt lat="45.62063" lon="6.02328">
        <ele>1067.66</ele>
        <time>2017-10-15T12:41:48Z</time>
      </trkpt>
      <trkpt lat="45.62083" lon="6.02336">
        <ele>1065.16</ele>
        <time>2017-10-15T12:41:56Z</time>
      </trkpt>
      <trkpt lat="45.62098" lon="6.0235">
        <ele>1066.4</ele>
        <time>2017-10-15T12:42:15Z</time>
      </trkpt>
      <trkpt lat="45.62115" lon="6.02362">
        <ele>1069.46</ele>
        <time>2017-10-15T12:42:35Z</time>
      </trkpt>
      <trkpt lat="45.62134" lon="6.02359">
        <ele>1068.66</ele>
        <time>2017-10-15T12:42:57Z</time>
      </trkpt>
      <trkpt lat="45.62135" lon="6.02331">
        <ele>1068.02</ele>
        <time>2017-10-15T12:43:25Z</time>
      </trkpt>
      <trkpt lat="45.62133" lon="6.02303">
        <ele>1066</ele>
        <time>2017-10-15T12:43:43Z</time>
      </trkpt>
      <trkpt lat="45.62135" lon="6.02276">
        <ele>1063.55</ele>
        <time>2017-10-15T12:44:01Z</time>
      </trkpt>
      <trkpt lat="45.62136" lon="6.0225">
        <ele>1062.59</ele>
        <time>2017-10-15T12:44:14Z</time>
      </trkpt>
      <trkpt lat="45.62149" lon="6.02229">
        <ele>1060.05</ele>
        <time>2017-10-15T12:44:38Z</time>
      </trkpt>
      <trkpt lat="45.62167" lon="6.02225">
        <ele>1057.34</ele>
        <time>2017-10-15T12:44:57Z</time>
      </trkpt>
      <trkpt lat="45.62164" lon="6.02198">
        <ele>1051.63</ele>
        <time>2017-10-15T12:45:28Z</time>
      </trkpt>
      <trkpt lat="45.62157" lon="6.02174">
        <ele>1046.42</ele>
        <time>2017-10-15T12:45:49Z</time>
      </trkpt>
      <trkpt lat="45.62144" lon="6.02155">
        <ele>1042.72</ele>
        <time>2017-10-15T12:46:09Z</time>
      </trkpt>
      <trkpt lat="45.62131" lon="6.02137">
        <ele>1040.16</ele>
        <time>2017-10-15T12:46:22Z</time>
      </trkpt>
      <trkpt lat="45.62121" lon="6.02114">
        <ele>1035.62</ele>
        <time>2017-10-15T12:46:39Z</time>
      </trkpt>
      <trkpt lat="45.6211" lon="6.02091">
        <ele>1031.58</ele>
        <time>2017-10-15T12:46:57Z</time>
      </trkpt>
      <trkpt lat="45.62103" lon="6.02067">
        <ele>1027.92</ele>
        <time>2017-10-15T12:47:13Z</time>
      </trkpt>
      <trkpt lat="45.62106" lon="6.02039">
        <ele>1023.54</ele>
        <time>2017-10-15T12:47:32Z</time>
      </trkpt>
      <trkpt lat="45.62106" lon="6.02012">
        <ele>1021.2</ele>
        <time>2017-10-15T12:47:51Z</time>
      </trkpt>
      <trkpt lat="45.62104" lon="6.01986">
        <ele>1019.01</ele>
        <time>2017-10-15T12:48:08Z</time>
      </trkpt>
      <trkpt lat="45.62091" lon="6.01968">
        <ele>1015.79</ele>
        <time>2017-10-15T12:48:28Z</time>
      </trkpt>
      <trkpt lat="45.62077" lon="6.01952">
        <ele>1013.15</ele>
        <time>2017-10-15T12:48:43Z</time>
      </trkpt>
      <trkpt lat="45.6207" lon="6.01928">
        <ele>1012.36</ele>
        <time>2017-10-15T12:49:00Z</time>
      </trkpt>
      <trkpt lat="45.62069" lon="6.01901">
        <ele>1008.99</ele>
        <time>2017-10-15T12:49:19Z</time>
      </trkpt>
      <trkpt lat="45.62069" lon="6.01875">
        <ele>1007.06</ele>
        <time>2017-10-15T12:49:32Z</time>
      </trkpt>
      <trkpt lat="45.62085" lon="6.01864">
        <ele>1003.85</ele>
        <time>2017-10-15T12:49:54Z</time>
      </trkpt>
      <trkpt lat="45.62102" lon="6.01856">
        <ele>999.82</ele>
        <time>2017-10-15T12:50:10Z</time>
      </trkpt>
      <trkpt lat="45.6211" lon="6.01831">
        <ele>994.95</ele>
        <time>2017-10-15T12:50:26Z</time>
      </trkpt>
      <trkpt lat="45.62094" lon="6.01815">
        <ele>991.8</ele>
        <time>2017-10-15T12:50:48Z</time>
      </trkpt>
      <trkpt lat="45.6208" lon="6.01799">
        <ele>990.23</ele>
        <time>2017-10-15T12:51:03Z</time>
      </trkpt>
      <trkpt lat="45.62077" lon="6.01772">
        <ele>989.47</ele>
        <time>2017-10-15T12:51:16Z</time>
      </trkpt>
      <trkpt lat="45.62086" lon="6.01749">
        <ele>988.87</ele>
        <time>2017-10-15T12:51:28Z</time>
      </trkpt>
      <trkpt lat="45.62097" lon="6.01729">
        <ele>988.54</ele>
        <time>2017-10-15T12:51:41Z</time>
      </trkpt>
      <trkpt lat="45.6211" lon="6.01711">
        <ele>986.2</ele>
        <time>2017-10-15T12:51:56Z</time>
      </trkpt>
      <trkpt lat="45.62128" lon="6.01699">
        <ele>983.47</ele>
        <time>2017-10-15T12:52:13Z</time>
      </trkpt>
      <trkpt lat="45.62143" lon="6.01684">
        <ele>980.21</ele>
        <time>2017-10-15T12:52:31Z</time>
      </trkpt>
      <trkpt lat="45.62145" lon="6.01657">
        <ele>976.5</ele>
        <time>2017-10-15T12:52:44Z</time>
      </trkpt>
      <trkpt lat="45.62155" lon="6.01635">
        <ele>975.91</ele>
        <time>2017-10-15T12:52:55Z</time>
      </trkpt>
      <trkpt lat="45.62156" lon="6.01608">
        <ele>978.92</ele>
        <time>2017-10-15T12:53:09Z</time>
      </trkpt>
      <trkpt lat="45.62172" lon="6.01595">
        <ele>980.07</ele>
        <time>2017-10-15T12:53:28Z</time>
      </trkpt>
      <trkpt lat="45.62184" lon="6.01572">
        <ele>976.56</ele>
        <time>2017-10-15T12:53:42Z</time>
      </trkpt>
      <trkpt lat="45.62186" lon="6.01545">
        <ele>972.07</ele>
        <time>2017-10-15T12:54:01Z</time>
      </trkpt>
      <trkpt lat="45.62189" lon="6.01518">
        <ele>968.02</ele>
        <time>2017-10-15T12:54:14Z</time>
      </trkpt>
      <trkpt lat="45.62189" lon="6.01492">
        <ele>966.67</ele>
        <time>2017-10-15T12:54:30Z</time>
      </trkpt>
      <trkpt lat="45.62177" lon="6.01471">
        <ele>967.08</ele>
        <time>2017-10-15T12:54:47Z</time>
      </trkpt>
      <trkpt lat="45.62165" lon="6.01452">
        <ele>966.86</ele>
        <time>2017-10-15T12:54:59Z</time>
      </trkpt>
      <trkpt lat="45.62153" lon="6.01433">
        <ele>966.16</ele>
        <time>2017-10-15T12:55:17Z</time>
      </trkpt>
      <trkpt lat="45.62148" lon="6.01425">
        <ele>965.73</ele>
        <time>2017-10-15T12:55:22Z</time>
      </trkpt>
      <trkpt lat="45.62139" lon="6.01402">
        <ele>964.42</ele>
        <time>2017-10-15T12:55:34Z</time>
      </trkpt>
      <trkpt lat="45.62139" lon="6.01375">
        <ele>962.88</ele>
        <time>2017-10-15T12:55:51Z</time>
      </trkpt>
      <trkpt lat="45.62145" lon="6.01349">
        <ele>959.48</ele>
        <time>2017-10-15T12:56:08Z</time>
      </trkpt>
      <trkpt lat="45.62157" lon="6.01325">
        <ele>955.4</ele>
        <time>2017-10-15T12:56:25Z</time>
      </trkpt>
      <trkpt lat="45.62171" lon="6.01308">
        <ele>953.4</ele>
        <time>2017-10-15T12:56:36Z</time>
      </trkpt>
      <trkpt lat="45.62185" lon="6.01289">
        <ele>952.68</ele>
        <time>2017-10-15T12:56:50Z</time>
      </trkpt>
      <trkpt lat="45.62191" lon="6.01264">
        <ele>952.25</ele>
        <time>2017-10-15T12:57:03Z</time>
      </trkpt>
      <trkpt lat="45.62201" lon="6.01242">
        <ele>951.15</ele>
        <time>2017-10-15T12:57:17Z</time>
      </trkpt>
      <trkpt lat="45.62209" lon="6.01219">
        <ele>949.63</ele>
        <time>2017-10-15T12:57:31Z</time>
      </trkpt>
      <trkpt lat="45.6222" lon="6.01197">
        <ele>948.6</ele>
        <time>2017-10-15T12:57:47Z</time>
      </trkpt>
      <trkpt lat="45.6223" lon="6.01175">
        <ele>947.57</ele>
        <time>2017-10-15T12:58:00Z</time>
      </trkpt>
      <trkpt lat="45.62242" lon="6.01154">
        <ele>946.88</ele>
        <time>2017-10-15T12:58:16Z</time>
      </trkpt>
      <trkpt lat="45.62246" lon="6.01127">
        <ele>946.05</ele>
        <time>2017-10-15T12:58:32Z</time>
      </trkpt>
      <trkpt lat="45.6224" lon="6.011">
        <ele>945.07</ele>
        <time>2017-10-15T12:58:47Z</time>
      </trkpt>
      <trkpt lat="45.62233" lon="6.01075">
        <ele>944.52</ele>
        <time>2017-10-15T12:59:02Z</time>
      </trkpt>
      <trkpt lat="45.62221" lon="6.01054">
        <ele>944.29</ele>
        <time>2017-10-15T12:59:17Z</time>
      </trkpt>
      <trkpt lat="45.62202" lon="6.01051">
        <ele>944.78</ele>
        <time>2017-10-15T12:59:31Z</time>
      </trkpt>
      <trkpt lat="45.62184" lon="6.01048">
        <ele>944.77</ele>
        <time>2017-10-15T12:59:48Z</time>
      </trkpt>
      <trkpt lat="45.62166" lon="6.01057">
        <ele>943.67</ele>
        <time>2017-10-15T13:00:02Z</time>
      </trkpt>
      <trkpt lat="45.62163" lon="6.01083">
        <ele>943.36</ele>
        <time>2017-10-15T13:00:17Z</time>
      </trkpt>
    </trkseg>
  </trk>
</gpx>